Observation data for Fritch on 08/20/2019      Previous  Date  Next       Current Mesonet Observations  Soil Data  Daily Summary Page  Observations in Plain Language
KFR1 200500Z 17014KT 29/14 A3004 RMK A01 T02910139  RH  039%=      5-min Rain = 0
KFR1 200501Z 17013G18KT 29/14 A3004 RMK A01 T02910139  RH  039%=      5-min Rain = 0
KFR1 200502Z 17015KT 29/14 A3004 RMK A01 T02910139  RH  039%=      5-min Rain = 0
KFR1 200503Z 17012KT 29/14 A3004 RMK A01 T02920140  RH  039%=      5-min Rain = 0
KFR1 200504Z 17013KT 29/14 A3004 RMK A01 T02920140  RH  040%=      5-min Rain = 0
KFR1 200505Z 17015KT 29/14 A3004 RMK A01 T02920141  RH  040%=      5-min Rain = 0
KFR1 200506Z 17015KT 29/14 A3004 RMK A01 T02920141  RH  040%=      5-min Rain = 0
KFR1 200507Z 17014KT 29/14 A3004 RMK A01 T02930141  RH  040%=      5-min Rain = 0
KFR1 200508Z 17014KT 29/14 A3004 RMK A01 T02930141  RH  040%=      5-min Rain = 0
KFR1 200509Z 17014KT 29/14 A3004 RMK A01 T02930142  RH  040%=      5-min Rain = 0
KFR1 200510Z 17016G21KT 29/14 A3004 RMK A01 T02930142  RH  040%=      5-min Rain = 0
KFR1 200511Z 17015KT 29/14 A3004 RMK A01 T02940143  RH  040%=      5-min Rain = 0
KFR1 200512Z 17016KT 30/14 A3004 RMK A01 T02950143  RH  040%=      5-min Rain = 0
KFR1 200513Z 17015G22KT 30/14 A3004 RMK A01 T02950143  RH  040%=      5-min Rain = 0
KFR1 200514Z 17014G20KT 30/14 A3004 RMK A01 T02950143  RH  040%=      5-min Rain = 0
KFR1 200515Z 17015KT 30/14 A3004 RMK A01 T02950144  RH  040%=      5-min Rain = 0
KFR1 200516Z 17016KT 30/14 A3004 RMK A01 T02950144  RH  040%=      5-min Rain = 0
KFR1 200517Z 17017KT 30/14 A3004 RMK A01 T02950144  RH  040%=      5-min Rain = 0
KFR1 200518Z 17014KT 30/14 A3004 RMK A01 T02950144  RH  040%=      5-min Rain = 0
KFR1 200519Z 17014KT 30/14 A3004 RMK A01 T02950144  RH  040%=      5-min Rain = 0
KFR1 200520Z 17015KT 30/15 A3004 RMK A01 T02950145  RH  040%=      5-min Rain = 0
KFR1 200521Z 17015KT 30/15 A3004 RMK A01 T02950145  RH  040%=      5-min Rain = 0
KFR1 200522Z 18016KT 30/15 A3004 RMK A01 T02950145  RH  040%=      5-min Rain = 0
KFR1 200523Z 18014KT 30/15 A3004 RMK A01 T02950145  RH  040%=      5-min Rain = 0
KFR1 200524Z 18016KT 30/15 A3004 RMK A01 T02950145  RH  040%=      5-min Rain = 0
KFR1 200525Z 18014KT 30/15 A3004 RMK A01 T02950146  RH  040%=      5-min Rain = 0
KFR1 200526Z 18014KT 30/15 A3004 RMK A01 T02950146  RH  040%=      5-min Rain = 0
KFR1 200527Z 17012KT 30/15 A3004 RMK A01 T02950146  RH  040%=      5-min Rain = 0
KFR1 200528Z 18012G17KT 30/15 A3004 RMK A01 T02950146  RH  040%=      5-min Rain = 0
KFR1 200529Z 18012KT 30/15 A3004 RMK A01 T02950146  RH  040%=      5-min Rain = 0
KFR1 200530Z 18012KT 30/15 A3004 RMK A01 T02950147  RH  041%=      5-min Rain = 0
KFR1 200531Z 17012G17KT 29/15 A3004 RMK A01 T02940147  RH  041%=      5-min Rain = 0
KFR1 200532Z 18014KT 29/15 A3004 RMK A01 T02940147  RH  041%=      5-min Rain = 0
KFR1 200533Z 18013KT 29/15 A3004 RMK A01 T02940147  RH  041%=      5-min Rain = 0
KFR1 200534Z 18012KT 30/15 A3004 RMK A01 T02950147  RH  041%=      5-min Rain = 0
KFR1 200535Z 18013KT 30/15 A3004 RMK A01 T02950148  RH  041%=      5-min Rain = 0
KFR1 200536Z 17014G19KT 29/15 A3004 RMK A01 T02940148  RH  041%=      5-min Rain = 0
KFR1 200537Z 18013KT 29/15 A3004 RMK A01 T02940148  RH  041%=      5-min Rain = 0
KFR1 200538Z 17012KT 29/15 A3004 RMK A01 T02940148  RH  041%=      5-min Rain = 0
KFR1 200539Z 18011KT 29/15 A3004 RMK A01 T02940149  RH  041%=      5-min Rain = 0
KFR1 200540Z 17015KT 29/15 A3004 RMK A01 T02940149  RH  041%=      5-min Rain = 0
KFR1 200541Z 18014KT 29/15 A3004 RMK A01 T02940149  RH  041%=      5-min Rain = 0
KFR1 200542Z 17014KT 29/15 A3004 RMK A01 T02940149  RH  041%=      5-min Rain = 0
KFR1 200543Z 17014KT 30/15 A3004 RMK A01 T02950150  RH  041%=      5-min Rain = 0
KFR1 200544Z 18011KT 30/15 A3004 RMK A01 T02950149  RH  041%=      5-min Rain = 0
KFR1 200545Z 18014KT 30/15 A3004 RMK A01 T02950150  RH  041%=      5-min Rain = 0
KFR1 200546Z 18013KT 30/15 A3004 RMK A01 T02950150  RH  041%=      5-min Rain = 0
KFR1 200547Z 18009KT 30/15 A3004 RMK A01 T02950150  RH  041%=      5-min Rain = 0
KFR1 200548Z 18013KT 30/15 A3004 RMK A01 T02950151  RH  042%=      5-min Rain = 0
KFR1 200549Z 18014KT 29/15 A3004 RMK A01 T02940150  RH  042%=      5-min Rain = 0
KFR1 200550Z 18013KT 29/15 A3004 RMK A01 T02940150  RH  042%=      5-min Rain = 0
KFR1 200551Z 18013KT 29/15 A3004 RMK A01 T02940151  RH  042%=      5-min Rain = 0
KFR1 200552Z 17013KT 29/15 A3004 RMK A01 T02940151  RH  042%=      5-min Rain = 0
KFR1 200553Z 18015KT 29/15 A3004 RMK A01 T02940151  RH  042%=      5-min Rain = 0
KFR1 200554Z 17013KT 29/15 A3004 RMK A01 T02940152  RH  042%=      5-min Rain = 0
KFR1 200555Z 18013KT 29/15 A3004 RMK A01 T02940152  RH  042%=      5-min Rain = 0
KFR1 200556Z 18014G20KT 29/15 A3004 RMK A01 T02940152  RH  042%=      5-min Rain = 0
KFR1 200557Z 18013G19KT 29/15 A3004 RMK A01 T02940152  RH  042%=      5-min Rain = 0
KFR1 200558Z 18014KT 29/15 A3004 RMK A01 T02940152  RH  042%=      5-min Rain = 0
KFR1 200559Z 18014KT 29/15 A3004 RMK A01 T02930152  RH  042%=      5-min Rain = 0
KFR1 200600Z 18013KT 29/15 A3004 RMK A01 T02930152  RH  042%=      5-min Rain = 0
KFR1 200601Z 18013KT 29/15 A3004 RMK A01 T02930152  RH  042%=      5-min Rain = 0
KFR1 200602Z 17011KT 29/15 A3004 RMK A01 T02930152  RH  042%=      5-min Rain = 0
KFR1 200603Z 18014KT 29/15 A3004 RMK A01 T02930153  RH  042%=      5-min Rain = 0
KFR1 200604Z 18014KT 29/15 A3004 RMK A01 T02930152  RH  042%=      5-min Rain = 0
KFR1 200605Z 18013KT 29/15 A3004 RMK A01 T02930152  RH  042%=      5-min Rain = 0
KFR1 200606Z 18014KT 29/15 A3004 RMK A01 T02930152  RH  042%=      5-min Rain = 0
KFR1 200607Z 18014KT 29/15 A3004 RMK A01 T02940152  RH  042%=      5-min Rain = 0
KFR1 200608Z 18012KT 29/15 A3004 RMK A01 T02940153  RH  042%=      5-min Rain = 0
KFR1 200609Z 18013KT 29/15 A3004 RMK A01 T02940153  RH  042%=      5-min Rain = 0
KFR1 200610Z 18014KT 29/15 A3004 RMK A01 T02940153  RH  042%=      5-min Rain = 0
KFR1 200611Z 18011KT 29/15 A3004 RMK A01 T02940153  RH  042%=      5-min Rain = 0
KFR1 200612Z 18013G18KT 29/15 A3004 RMK A01 T02940153  RH  042%=      5-min Rain = 0
KFR1 200613Z 19012KT 29/15 A3004 RMK A01 T02940153  RH  042%=      5-min Rain = 0
KFR1 200614Z 18013KT 29/15 A3004 RMK A01 T02940153  RH  042%=      5-min Rain = 0
KFR1 200615Z 18014KT 29/15 A3004 RMK A01 T02940153  RH  042%=      5-min Rain = 0
KFR1 200616Z 19015KT 29/15 A3004 RMK A01 T02940153  RH  042%=      5-min Rain = 0
KFR1 200617Z 18014KT 30/15 A3004 RMK A01 T02950153  RH  042%=      5-min Rain = 0
KFR1 200618Z 19014KT 30/15 A3004 RMK A01 T02950153  RH  042%=      5-min Rain = 0
KFR1 200619Z 18015G20KT 30/15 A3004 RMK A01 T02950153  RH  042%=      5-min Rain = 0
KFR1 200620Z 18012KT 30/15 A3004 RMK A01 T02950153  RH  042%=      5-min Rain = 0
KFR1 200621Z 19013KT 30/15 A3004 RMK A01 T02950153  RH  042%=      5-min Rain = 0
KFR1 200622Z 18012G18KT 30/15 A3004 RMK A01 T02950153  RH  042%=      5-min Rain = 0
KFR1 200623Z 18014KT 30/15 A3004 RMK A01 T02950153  RH  042%=      5-min Rain = 0
KFR1 200624Z 19011KT 30/15 A3004 RMK A01 T02950153  RH  042%=      5-min Rain = 0
KFR1 200625Z 19013KT 29/15 A3004 RMK A01 T02940153  RH  042%=      5-min Rain = 0
KFR1 200626Z 18013KT 29/15 A3004 RMK A01 T02940153  RH  042%=      5-min Rain = 0
KFR1 200627Z 19013KT 29/15 A3004 RMK A01 T02940153  RH  042%=      5-min Rain = 0
KFR1 200628Z 19012KT 29/15 A3004 RMK A01 T02940153  RH  042%=      5-min Rain = 0
KFR1 200629Z 19014KT 29/15 A3004 RMK A01 T02940153  RH  043%=      5-min Rain = 0
KFR1 200630Z 19013KT 29/15 A3004 RMK A01 T02930153  RH  043%=      5-min Rain = 0
KFR1 200631Z 18011KT 29/15 A3004 RMK A01 T02930153  RH  043%=      5-min Rain = 0
KFR1 200632Z 19013KT 29/15 A3004 RMK A01 T02930153  RH  043%=      5-min Rain = 0
KFR1 200633Z 19012KT 29/15 A3004 RMK A01 T02930153  RH  043%=      5-min Rain = 0
KFR1 200634Z 19013KT 29/15 A3004 RMK A01 T02930153  RH  043%=      5-min Rain = 0
KFR1 200635Z 19012KT 29/15 A3004 RMK A01 T02930154  RH  043%=      5-min Rain = 0
KFR1 200636Z 19013G18KT 29/15 A3004 RMK A01 T02920153  RH  043%=      5-min Rain = 0
KFR1 200637Z 19014KT 29/15 A3004 RMK A01 T02920153  RH  043%=      5-min Rain = 0
KFR1 200638Z 19015KT 29/15 A3004 RMK A01 T02920153  RH  043%=      5-min Rain = 0
KFR1 200639Z 19014KT 29/15 A3004 RMK A01 T02930153  RH  043%=      5-min Rain = 0
KFR1 200640Z 19013KT 29/15 A3004 RMK A01 T02930153  RH  043%=      5-min Rain = 0
KFR1 200641Z 19013KT 29/15 A3004 RMK A01 T02930153  RH  043%=      5-min Rain = 0
KFR1 200642Z 19012KT 29/15 A3004 RMK A01 T02930154  RH  043%=      5-min Rain = 0
KFR1 200643Z 19013KT 29/15 A3004 RMK A01 T02930153  RH  043%=      5-min Rain = 0
KFR1 200644Z 19013KT 29/15 A3004 RMK A01 T02930154  RH  043%=      5-min Rain = 0
KFR1 200645Z 20012KT 29/15 A3004 RMK A01 T02930154  RH  043%=      5-min Rain = 0
KFR1 200646Z 19012KT 29/15 A3004 RMK A01 T02920153  RH  043%=      5-min Rain = 0
KFR1 200647Z 19013KT 29/15 A3004 RMK A01 T02920153  RH  043%=      5-min Rain = 0
KFR1 200648Z 19013KT 29/15 A3004 RMK A01 T02920153  RH  043%=      5-min Rain = 0
KFR1 200649Z 20014KT 29/15 A3004 RMK A01 T02930153  RH  043%=      5-min Rain = 0
KFR1 200650Z 19012KT 29/15 A3004 RMK A01 T02930153  RH  043%=      5-min Rain = 0
KFR1 200651Z 20013KT 29/15 A3004 RMK A01 T02930153  RH  043%=      5-min Rain = 0
KFR1 200652Z 19014KT 29/15 A3004 RMK A01 T02930154  RH  043%=      5-min Rain = 0
KFR1 200653Z 20012KT 29/15 A3005 RMK A01 T02930153  RH  043%=      5-min Rain = 0
KFR1 200654Z 20012KT 29/15 A3005 RMK A01 T02920153  RH  043%=      5-min Rain = 0
KFR1 200655Z 20012KT 29/15 A3005 RMK A01 T02920154  RH  043%=      5-min Rain = 0
KFR1 200656Z 20010KT 29/15 A3005 RMK A01 T02920154  RH  043%=      5-min Rain = 0
KFR1 200657Z 20012KT 29/15 A3005 RMK A01 T02920153  RH  043%=      5-min Rain = 0
KFR1 200658Z 20011KT 29/15 A3004 RMK A01 T02920153  RH  043%=      5-min Rain = 0
KFR1 200659Z 19010KT 29/15 A3004 RMK A01 T02920154  RH  043%=      5-min Rain = 0
KFR1 200700Z 19011KT 29/15 A3004 RMK A01 T02920154  RH  043%=      5-min Rain = 0
KFR1 200701Z 20011KT 29/15 A3004 RMK A01 T02920154  RH  043%=      5-min Rain = 0
KFR1 200702Z 20012KT 29/15 A3004 RMK A01 T02910153  RH  043%=      5-min Rain = 0
KFR1 200703Z 19012KT 29/15 A3004 RMK A01 T02920153  RH  043%=      5-min Rain = 0
KFR1 200704Z 19013KT 29/15 A3004 RMK A01 T02920153  RH  043%=      5-min Rain = 0
KFR1 200705Z 19011KT 29/15 A3004 RMK A01 T02920153  RH  043%=      5-min Rain = 0
KFR1 200706Z 19009KT 29/15 A3004 RMK A01 T02920154  RH  043%=      5-min Rain = 0
KFR1 200707Z 19011KT 29/15 A3004 RMK A01 T02920154  RH  043%=      5-min Rain = 0
KFR1 200708Z 19011G17KT 29/15 A3004 RMK A01 T02920154  RH  043%=      5-min Rain = 0
KFR1 200709Z 19010KT 29/15 A3004 RMK A01 T02910153  RH  043%=      5-min Rain = 0
KFR1 200710Z 19013KT 29/15 A3004 RMK A01 T02920154  RH  043%=      5-min Rain = 0
KFR1 200711Z 20013KT 29/15 A3004 RMK A01 T02920154  RH  043%=      5-min Rain = 0
KFR1 200712Z 19012KT 29/15 A3004 RMK A01 T02910153  RH  043%=      5-min Rain = 0
KFR1 200713Z 19013G19KT 29/15 A3004 RMK A01 T02920153  RH  043%=      5-min Rain = 0
KFR1 200714Z 20014KT 29/15 A3004 RMK A01 T02920153  RH  043%=      5-min Rain = 0
KFR1 200715Z 20013KT 29/15 A3004 RMK A01 T02920153  RH  043%=      5-min Rain = 0
KFR1 200716Z 19012KT 29/15 A3004 RMK A01 T02920153  RH  043%=      5-min Rain = 0
KFR1 200717Z 20012KT 29/15 A3004 RMK A01 T02920153  RH  043%=      5-min Rain = 0
KFR1 200718Z 19013KT 29/15 A3004 RMK A01 T02930153  RH  043%=      5-min Rain = 0
KFR1 200719Z 20012KT 29/15 A3004 RMK A01 T02930153  RH  043%=      5-min Rain = 0
KFR1 200720Z 20013KT 29/15 A3004 RMK A01 T02920153  RH  043%=      5-min Rain = 0
KFR1 200721Z 20012KT 29/15 A3004 RMK A01 T02920153  RH  043%=      5-min Rain = 0
KFR1 200722Z 20013KT 29/15 A3004 RMK A01 T02920153  RH  043%=      5-min Rain = 0
KFR1 200723Z 19011KT 29/15 A3004 RMK A01 T02920153  RH  043%=      5-min Rain = 0
KFR1 200724Z 19015KT 29/15 A3004 RMK A01 T02920153  RH  043%=      5-min Rain = 0
KFR1 200725Z 20013KT 29/15 A3004 RMK A01 T02920153  RH  043%=      5-min Rain = 0
KFR1 200726Z 20010KT 29/15 A3004 RMK A01 T02920153  RH  043%=      5-min Rain = 0
KFR1 200727Z 20013KT 29/15 A3004 RMK A01 T02910153  RH  043%=      5-min Rain = 0
KFR1 200728Z 19012KT 29/15 A3004 RMK A01 T02910154  RH  043%=      5-min Rain = 0
KFR1 200729Z 20011KT 29/15 A3004 RMK A01 T02910153  RH  043%=      5-min Rain = 0
KFR1 200730Z 20010KT 29/15 A3004 RMK A01 T02910153  RH  043%=      5-min Rain = 0
KFR1 200731Z 20011KT 29/15 A3004 RMK A01 T02900153  RH  043%=      5-min Rain = 0
KFR1 200732Z 20013KT 29/15 A3004 RMK A01 T02900153  RH  043%=      5-min Rain = 0
KFR1 200733Z 20013KT 29/15 A3004 RMK A01 T02900153  RH  043%=      5-min Rain = 0
KFR1 200734Z 20013KT 29/15 A3004 RMK A01 T02900153  RH  043%=      5-min Rain = 0
KFR1 200735Z 19012KT 29/15 A3004 RMK A01 T02900153  RH  043%=      5-min Rain = 0
KFR1 200736Z 20011KT 29/15 A3004 RMK A01 T02900153  RH  043%=      5-min Rain = 0
KFR1 200737Z 20013KT 29/15 A3004 RMK A01 T02900154  RH  044%=      5-min Rain = 0
KFR1 200738Z 19013KT 29/15 A3004 RMK A01 T02900153  RH  044%=      5-min Rain = 0
KFR1 200739Z 19012KT 29/15 A3004 RMK A01 T02900153  RH  043%=      5-min Rain = 0
KFR1 200740Z 19011KT 29/15 A3004 RMK A01 T02900153  RH  044%=      5-min Rain = 0
KFR1 200741Z 19014KT 29/15 A3004 RMK A01 T02890153  RH  044%=      5-min Rain = 0
KFR1 200742Z 19014KT 29/15 A3004 RMK A01 T02890153  RH  044%=      5-min Rain = 0
KFR1 200743Z 19015KT 29/15 A3004 RMK A01 T02900153  RH  043%=      5-min Rain = 0
KFR1 200744Z 19015KT 29/15 A3004 RMK A01 T02900153  RH  043%=      5-min Rain = 0
KFR1 200745Z 19014G19KT 29/15 A3004 RMK A01 T02900153  RH  043%=      5-min Rain = 0
KFR1 200746Z 19015KT 29/15 A3004 RMK A01 T02900153  RH  043%=      5-min Rain = 0
KFR1 200747Z 20013G18KT 29/15 A3004 RMK A01 T02900153  RH  043%=      5-min Rain = 0
KFR1 200748Z 19015G20KT 29/15 A3004 RMK A01 T02900153  RH  043%=      5-min Rain = 0
KFR1 200749Z 20013KT 29/15 A3004 RMK A01 T02900153  RH  043%=      5-min Rain = 0
KFR1 200750Z 20013KT 29/15 A3004 RMK A01 T02900153  RH  043%=      5-min Rain = 0
KFR1 200751Z 20013KT 29/15 A3004 RMK A01 T02900153  RH  043%=      5-min Rain = 0
KFR1 200752Z 20014KT 29/15 A3004 RMK A01 T02890153  RH  044%=      5-min Rain = 0
KFR1 200753Z 19013KT 29/15 A3004 RMK A01 T02890153  RH  044%=      5-min Rain = 0
KFR1 200754Z 20011G16KT 29/15 A3004 RMK A01 T02890153  RH  044%=      5-min Rain = 0
KFR1 200755Z 19014G20KT 29/15 A3004 RMK A01 T02890153  RH  044%=      5-min Rain = 0
KFR1 200756Z 20012KT 29/15 A3004 RMK A01 T02890153  RH  044%=      5-min Rain = 0
KFR1 200757Z 19015KT 29/15 A3004 RMK A01 T02880153  RH  044%=      5-min Rain = 0
KFR1 200758Z 20014G19KT 29/15 A3004 RMK A01 T02880153  RH  044%=      5-min Rain = 0
KFR1 200759Z 19010KT 29/15 A3004 RMK A01 T02880153  RH  044%=      5-min Rain = 0
KFR1 200800Z 20015KT 29/15 A3004 RMK A01 T02890154  RH  044%=      5-min Rain = 0
KFR1 200801Z 20013KT 29/15 A3004 RMK A01 T02880153  RH  044%=      5-min Rain = 0
KFR1 200802Z 20015G20KT 29/15 A3004 RMK A01 T02880153  RH  044%=      5-min Rain = 0
KFR1 200803Z 19014KT 29/15 A3004 RMK A01 T02880153  RH  044%=      5-min Rain = 0
KFR1 200804Z 19016KT 29/15 A3004 RMK A01 T02880153  RH  044%=      5-min Rain = 0
KFR1 200805Z 19016KT 29/15 A3004 RMK A01 T02880153  RH  044%=      5-min Rain = 0
KFR1 200806Z 19017KT 29/15 A3004 RMK A01 T02880153  RH  044%=      5-min Rain = 0
KFR1 200807Z 19014G21KT 29/15 A3004 RMK A01 T02880153  RH  044%=      5-min Rain = 0
KFR1 200808Z 19014KT 29/15 A3004 RMK A01 T02880153  RH  044%=      5-min Rain = 0
KFR1 200809Z 19014KT 29/15 A3004 RMK A01 T02880153  RH  044%=      5-min Rain = 0
KFR1 200810Z 19014KT 29/15 A3004 RMK A01 T02870153  RH  044%=      5-min Rain = 0
KFR1 200811Z 19014KT 29/15 A3004 RMK A01 T02870153  RH  044%=      5-min Rain = 0
KFR1 200812Z 19014KT 29/15 A3004 RMK A01 T02870153  RH  044%=      5-min Rain = 0
KFR1 200813Z 20013G18KT 29/15 A3004 RMK A01 T02870153  RH  044%=      5-min Rain = 0
KFR1 200814Z 19013KT 29/15 A3004 RMK A01 T02870154  RH  044%=      5-min Rain = 0
KFR1 200815Z 19014KT 29/15 A3004 RMK A01 T02870154  RH  044%=      5-min Rain = 0
KFR1 200816Z 19015KT 29/15 A3004 RMK A01 T02870154  RH  044%=      5-min Rain = 0
KFR1 200817Z 19014G19KT 29/15 A3004 RMK A01 T02870154  RH  044%=      5-min Rain = 0
KFR1 200818Z 19013KT 29/15 A3004 RMK A01 T02860154  RH  044%=      5-min Rain = 0
KFR1 200819Z 19015KT 29/15 A3004 RMK A01 T02860154  RH  045%=      5-min Rain = 0
KFR1 200820Z 19014KT 29/15 A3004 RMK A01 T02860154  RH  045%=      5-min Rain = 0
KFR1 200821Z 19013KT 29/15 A3004 RMK A01 T02860154  RH  045%=      5-min Rain = 0
KFR1 200822Z 19014KT 29/15 A3004 RMK A01 T02860154  RH  045%=      5-min Rain = 0
KFR1 200823Z 20012KT 29/15 A3004 RMK A01 T02860154  RH  045%=      5-min Rain = 0
KFR1 200824Z 19014G19KT 29/15 A3004 RMK A01 T02850154  RH  045%=      5-min Rain = 0
KFR1 200825Z 19014KT 29/15 A3004 RMK A01 T02850154  RH  045%=      5-min Rain = 0
KFR1 200826Z 19015KT 29/15 A3004 RMK A01 T02850154  RH  045%=      5-min Rain = 0
KFR1 200827Z 20014KT 29/15 A3004 RMK A01 T02850154  RH  045%=      5-min Rain = 0
KFR1 200828Z 20014KT 29/15 A3004 RMK A01 T02850154  RH  045%=      5-min Rain = 0
KFR1 200829Z 20013G19KT 29/15 A3004 RMK A01 T02850154  RH  045%=      5-min Rain = 0
KFR1 200830Z 19012KT 29/15 A3004 RMK A01 T02850154  RH  045%=      5-min Rain = 0
KFR1 200831Z 20014G19KT 29/15 A3004 RMK A01 T02850154  RH  045%=      5-min Rain = 0
KFR1 200832Z 20013G18KT 29/15 A3004 RMK A01 T02850154  RH  045%=      5-min Rain = 0
KFR1 200833Z 20013KT 29/15 A3004 RMK A01 T02850154  RH  045%=      5-min Rain = 0
KFR1 200834Z 20010G15KT 28/15 A3004 RMK A01 T02840154  RH  045%=      5-min Rain = 0
KFR1 200835Z 20012KT 28/16 A3004 RMK A01 T02840155  RH  045%=      5-min Rain = 0
KFR1 200836Z 20013KT 28/16 A3004 RMK A01 T02840155  RH  045%=      5-min Rain = 0
KFR1 200837Z 20014KT 28/15 A3004 RMK A01 T02840154  RH  045%=      5-min Rain = 0
KFR1 200838Z 20010KT 28/15 A3004 RMK A01 T02840154  RH  045%=      5-min Rain = 0
KFR1 200839Z 20012KT 28/16 A3004 RMK A01 T02840155  RH  045%=      5-min Rain = 0
KFR1 200840Z 20011KT 28/16 A3004 RMK A01 T02830155  RH  046%=      5-min Rain = 0
KFR1 200841Z 20012KT 28/15 A3004 RMK A01 T02830154  RH  046%=      5-min Rain = 0
KFR1 200842Z 20010KT 28/16 A3004 RMK A01 T02830155  RH  046%=      5-min Rain = 0
KFR1 200843Z 20011KT 28/16 A3004 RMK A01 T02830155  RH  046%=      5-min Rain = 0
KFR1 200844Z 20011KT 28/16 A3004 RMK A01 T02820155  RH  046%=      5-min Rain = 0
KFR1 200845Z 20009KT 28/16 A3004 RMK A01 T02820155  RH  046%=      5-min Rain = 0
KFR1 200846Z 20009KT 28/16 A3004 RMK A01 T02810155  RH  046%=      5-min Rain = 0
KFR1 200847Z 20009KT 28/16 A3004 RMK A01 T02810155  RH  046%=      5-min Rain = 0
KFR1 200848Z 20010KT 28/16 A3004 RMK A01 T02810155  RH  046%=      5-min Rain = 0
KFR1 200849Z 21009KT 28/16 A3005 RMK A01 T02800155  RH  046%=      5-min Rain = 0
KFR1 200850Z 20007KT 28/16 A3005 RMK A01 T02800155  RH  046%=      5-min Rain = 0
KFR1 200851Z 20007KT 28/16 A3005 RMK A01 T02800155  RH  047%=      5-min Rain = 0
KFR1 200852Z 20007KT 28/16 A3005 RMK A01 T02800155  RH  047%=      5-min Rain = 0
KFR1 200853Z 20008KT 28/16 A3005 RMK A01 T02790155  RH  047%=      5-min Rain = 0
KFR1 200854Z 20008KT 28/16 A3005 RMK A01 T02790155  RH  047%=      5-min Rain = 0
KFR1 200855Z 20006KT 28/16 A3005 RMK A01 T02790155  RH  047%=      5-min Rain = 0
KFR1 200856Z 20007KT 28/16 A3005 RMK A01 T02790155  RH  047%=      5-min Rain = 0
KFR1 200857Z 20007KT 28/16 A3005 RMK A01 T02790155  RH  047%=      5-min Rain = 0
KFR1 200858Z 20008KT 28/16 A3005 RMK A01 T02790155  RH  047%=      5-min Rain = 0
KFR1 200859Z 20006KT 28/16 A3005 RMK A01 T02790155  RH  047%=      5-min Rain = 0
KFR1 200900Z 20006KT 28/16 A3005 RMK A01 T02790155  RH  047%=      5-min Rain = 0
KFR1 200901Z 20007KT 28/16 A3005 RMK A01 T02790156  RH  047%=      5-min Rain = 0
KFR1 200902Z 20005KT 28/16 A3005 RMK A01 T02780155  RH  047%=      5-min Rain = 0
KFR1 200903Z 20005KT 28/16 A3005 RMK A01 T02780155  RH  047%=      5-min Rain = 0
KFR1 200904Z 20005KT 28/16 A3005 RMK A01 T02780156  RH  047%=      5-min Rain = 0
KFR1 200905Z 20005KT 28/16 A3005 RMK A01 T02770156  RH  047%=      5-min Rain = 0
KFR1 200906Z 20006KT 28/16 A3005 RMK A01 T02770155  RH  047%=      5-min Rain = 0
KFR1 200907Z 21006KT 28/16 A3005 RMK A01 T02770155  RH  047%=      5-min Rain = 0
KFR1 200908Z 21007KT 28/16 A3006 RMK A01 T02770155  RH  047%=      5-min Rain = 0
KFR1 200909Z 21008KT 28/16 A3006 RMK A01 T02780155  RH  047%=      5-min Rain = 0
KFR1 200910Z 21008KT 28/16 A3006 RMK A01 T02790155  RH  047%=      5-min Rain = 0
KFR1 200911Z 21008KT 28/16 A3006 RMK A01 T02800155  RH  047%=      5-min Rain = 0
KFR1 200912Z 22009KT 28/16 A3006 RMK A01 T02800155  RH  046%=      5-min Rain = 0
KFR1 200913Z 22010KT 28/16 A3006 RMK A01 T02800155  RH  046%=      5-min Rain = 0
KFR1 200914Z 22008KT 28/16 A3006 RMK A01 T02810155  RH  046%=      5-min Rain = 0
KFR1 200915Z 23006KT 28/16 A3006 RMK A01 T02820156  RH  046%=      5-min Rain = 0
KFR1 200916Z 22008KT 28/16 A3006 RMK A01 T02810156  RH  047%=      5-min Rain = 0
KFR1 200917Z 21007KT 28/16 A3006 RMK A01 T02800155  RH  047%=      5-min Rain = 0
KFR1 200918Z 22007KT 28/16 A3006 RMK A01 T02800155  RH  047%=      5-min Rain = 0
KFR1 200919Z 22008KT 28/16 A3006 RMK A01 T02800155  RH  047%=      5-min Rain = 0
KFR1 200920Z 22007KT 28/16 A3006 RMK A01 T02800155  RH  047%=      5-min Rain = 0
KFR1 200921Z 22008KT 28/16 A3006 RMK A01 T02800155  RH  047%=      5-min Rain = 0
KFR1 200922Z 22008KT 28/16 A3006 RMK A01 T02800155  RH  047%=      5-min Rain = 0
KFR1 200923Z 21008KT 28/16 A3006 RMK A01 T02800155  RH  047%=      5-min Rain = 0
KFR1 200924Z 20008KT 28/16 A3006 RMK A01 T02800155  RH  047%=      5-min Rain = 0
KFR1 200925Z 21007KT 28/16 A3006 RMK A01 T02800155  RH  047%=      5-min Rain = 0
KFR1 200926Z 21008KT 28/16 A3006 RMK A01 T02800156  RH  047%=      5-min Rain = 0
KFR1 200927Z 21007KT 28/16 A3006 RMK A01 T02800156  RH  047%=      5-min Rain = 0
KFR1 200928Z 21008KT 28/16 A3006 RMK A01 T02800155  RH  047%=      5-min Rain = 0
KFR1 200929Z 20008KT 28/16 A3006 RMK A01 T02810156  RH  047%=      5-min Rain = 0
KFR1 200930Z 21006KT 28/16 A3006 RMK A01 T02810156  RH  047%=      5-min Rain = 0
KFR1 200931Z 20005KT 28/16 A3006 RMK A01 T02800156  RH  047%=      5-min Rain = 0
KFR1 200932Z 21006KT 28/16 A3006 RMK A01 T02790156  RH  047%=      5-min Rain = 0
KFR1 200933Z 20007KT 28/16 A3006 RMK A01 T02790157  RH  047%=      5-min Rain = 0
KFR1 200934Z 20008KT 28/16 A3006 RMK A01 T02780156  RH  047%=      5-min Rain = 0
KFR1 200935Z 20008KT 28/16 A3006 RMK A01 T02790156  RH  047%=      5-min Rain = 0
KFR1 200936Z 20006KT 28/16 A3006 RMK A01 T02790156  RH  047%=      5-min Rain = 0
KFR1 200937Z 20005KT 28/16 A3006 RMK A01 T02790157  RH  047%=      5-min Rain = 0
KFR1 200938Z 20006KT 28/16 A3006 RMK A01 T02780157  RH  048%=      5-min Rain = 0
KFR1 200939Z 21005KT 28/16 A3006 RMK A01 T02770157  RH  048%=      5-min Rain = 0
KFR1 200940Z 20006KT 28/16 A3006 RMK A01 T02770157  RH  048%=      5-min Rain = 0
KFR1 200941Z 20008KT 28/16 A3006 RMK A01 T02760156  RH  048%=      5-min Rain = 0
KFR1 200942Z 20007KT 28/16 A3006 RMK A01 T02770156  RH  048%=      5-min Rain = 0
KFR1 200943Z 21006KT 28/16 A3006 RMK A01 T02770157  RH  048%=      5-min Rain = 0
KFR1 200944Z 20006KT 28/16 A3006 RMK A01 T02770157  RH  048%=      5-min Rain = 0
KFR1 200945Z 20007KT 28/16 A3006 RMK A01 T02770157  RH  048%=      5-min Rain = 0
KFR1 200946Z 20007G12KT 28/16 A3006 RMK A01 T02760157  RH  048%=      5-min Rain = 0
KFR1 200947Z 20009KT 28/16 A3006 RMK A01 T02760157  RH  048%=      5-min Rain = 0
KFR1 200948Z 20008KT 28/16 A3006 RMK A01 T02760157  RH  048%=      5-min Rain = 0
KFR1 200949Z 20010KT 28/16 A3006 RMK A01 T02760157  RH  048%=      5-min Rain = 0
KFR1 200950Z 20010KT 28/16 A3006 RMK A01 T02760157  RH  048%=      5-min Rain = 0
KFR1 200951Z 20011KT 28/16 A3006 RMK A01 T02770157  RH  048%=      5-min Rain = 0
KFR1 200952Z 19009KT 28/16 A3006 RMK A01 T02770157  RH  048%=      5-min Rain = 0
KFR1 200953Z 20009KT 28/16 A3006 RMK A01 T02770157  RH  048%=      5-min Rain = 0
KFR1 200954Z 20011KT 28/16 A3006 RMK A01 T02770157  RH  048%=      5-min Rain = 0
KFR1 200955Z 20009KT 28/16 A3006 RMK A01 T02770157  RH  048%=      5-min Rain = 0
KFR1 200956Z 20011KT 28/16 A3006 RMK A01 T02770158  RH  048%=      5-min Rain = 0
KFR1 200957Z 19010KT 28/16 A3005 RMK A01 T02760157  RH  048%=      5-min Rain = 0
KFR1 200958Z 20010KT 28/16 A3006 RMK A01 T02760157  RH  048%=      5-min Rain = 0
KFR1 200959Z 20009KT 28/16 A3005 RMK A01 T02760157  RH  048%=      5-min Rain = 0
KFR1 201000Z 20009KT 28/16 A3005 RMK A01 T02760157  RH  049%=      5-min Rain = 0
KFR1 201001Z 19009KT 28/16 A3005 RMK A01 T02760158  RH  049%=      5-min Rain = 0
KFR1 201002Z 20008KT 28/16 A3006 RMK A01 T02750158  RH  049%=      5-min Rain = 0
KFR1 201003Z 20008KT 28/16 A3006 RMK A01 T02750158  RH  049%=      5-min Rain = 0
KFR1 201004Z 20009KT 27/16 A3006 RMK A01 T02740158  RH  049%=      5-min Rain = 0
KFR1 201005Z 20009KT 27/16 A3006 RMK A01 T02740157  RH  049%=      5-min Rain = 0
KFR1 201006Z 20011KT 27/16 A3006 RMK A01 T02740157  RH  049%=      5-min Rain = 0
KFR1 201007Z 20009KT 28/16 A3006 RMK A01 T02750157  RH  049%=      5-min Rain = 0
KFR1 201008Z 20008KT 28/16 A3006 RMK A01 T02750158  RH  049%=      5-min Rain = 0
KFR1 201009Z 20010KT 27/16 A3006 RMK A01 T02740158  RH  049%=      5-min Rain = 0
KFR1 201010Z 19010KT 27/16 A3006 RMK A01 T02740158  RH  049%=      5-min Rain = 0
KFR1 201011Z 19009KT 27/16 A3006 RMK A01 T02740158  RH  049%=      5-min Rain = 0
KFR1 201012Z 20010KT 27/16 A3006 RMK A01 T02740158  RH  049%=      5-min Rain = 0
KFR1 201013Z 20010KT 27/16 A3006 RMK A01 T02740158  RH  049%=      5-min Rain = 0
KFR1 201014Z 19010KT 27/16 A3006 RMK A01 T02740158  RH  049%=      5-min Rain = 0
KFR1 201015Z 20009KT 27/16 A3006 RMK A01 T02730158  RH  049%=      5-min Rain = 0
KFR1 201016Z 19010KT 27/16 A3006 RMK A01 T02730158  RH  049%=      5-min Rain = 0
KFR1 201017Z 19012KT 27/16 A3006 RMK A01 T02730158  RH  049%=      5-min Rain = 0
KFR1 201018Z 19011KT 27/16 A3006 RMK A01 T02730158  RH  049%=      5-min Rain = 0
KFR1 201019Z 20010KT 27/16 A3006 RMK A01 T02740158  RH  049%=      5-min Rain = 0
KFR1 201020Z 20011KT 27/16 A3006 RMK A01 T02740158  RH  049%=      5-min Rain = 0
KFR1 201021Z 20010KT 27/16 A3006 RMK A01 T02740158  RH  049%=      5-min Rain = 0
KFR1 201022Z 20011KT 27/16 A3006 RMK A01 T02740158  RH  049%=      5-min Rain = 0
KFR1 201023Z 20011KT 27/16 A3006 RMK A01 T02740158  RH  049%=      5-min Rain = 0
KFR1 201024Z 20010KT 27/16 A3006 RMK A01 T02740158  RH  049%=      5-min Rain = 0
KFR1 201025Z 20011KT 27/16 A3006 RMK A01 T02740158  RH  049%=      5-min Rain = 0
KFR1 201026Z 20011KT 27/16 A3006 RMK A01 T02740158  RH  049%=      5-min Rain = 0
KFR1 201027Z 20011KT 27/16 A3006 RMK A01 T02740158  RH  049%=      5-min Rain = 0
KFR1 201028Z 20012KT 27/16 A3006 RMK A01 T02740158  RH  049%=      5-min Rain = 0
KFR1 201029Z 20011KT 27/16 A3006 RMK A01 T02740158  RH  049%=      5-min Rain = 0
KFR1 201030Z 20011KT 27/16 A3006 RMK A01 T02740158  RH  049%=      5-min Rain = 0
KFR1 201031Z 20012KT 27/16 A3006 RMK A01 T02740158  RH  049%=      5-min Rain = 0
KFR1 201032Z 20011G16KT 27/16 A3006 RMK A01 T02740157  RH  049%=      5-min Rain = 0
KFR1 201033Z 20012KT 28/16 A3006 RMK A01 T02750158  RH  049%=      5-min Rain = 0
KFR1 201034Z 20013KT 28/16 A3006 RMK A01 T02750158  RH  049%=      5-min Rain = 0
KFR1 201035Z 20011KT 28/16 A3006 RMK A01 T02750158  RH  049%=      5-min Rain = 0
KFR1 201036Z 20011KT 27/16 A3006 RMK A01 T02740158  RH  049%=      5-min Rain = 0
KFR1 201037Z 20012KT 27/16 A3006 RMK A01 T02740158  RH  049%=      5-min Rain = 0
KFR1 201038Z 20011KT 27/16 A3006 RMK A01 T02740157  RH  049%=      5-min Rain = 0
KFR1 201039Z 20011KT 27/16 A3006 RMK A01 T02740157  RH  049%=      5-min Rain = 0
KFR1 201040Z 20011KT 28/16 A3006 RMK A01 T02750158  RH  049%=      5-min Rain = 0
KFR1 201041Z 20012KT 28/16 A3006 RMK A01 T02750157  RH  049%=      5-min Rain = 0
KFR1 201042Z 20012KT 28/16 A3006 RMK A01 T02750157  RH  049%=      5-min Rain = 0
KFR1 201043Z 19012KT 28/16 A3006 RMK A01 T02750158  RH  049%=      5-min Rain = 0
KFR1 201044Z 20013KT 28/16 A3006 RMK A01 T02760158  RH  048%=      5-min Rain = 0
KFR1 201045Z 20012KT 28/16 A3006 RMK A01 T02760158  RH  048%=      5-min Rain = 0
KFR1 201046Z 20011KT 28/16 A3006 RMK A01 T02760158  RH  048%=      5-min Rain = 0
KFR1 201047Z 20013KT 28/16 A3006 RMK A01 T02760158  RH  048%=      5-min Rain = 0
KFR1 201048Z 20011KT 28/16 A3006 RMK A01 T02760158  RH  048%=      5-min Rain = 0
KFR1 201049Z 20013KT 28/16 A3006 RMK A01 T02760158  RH  048%=      5-min Rain = 0
KFR1 201050Z 21011KT 28/16 A3006 RMK A01 T02760158  RH  048%=      5-min Rain = 0
KFR1 201051Z 20010KT 28/16 A3006 RMK A01 T02760158  RH  049%=      5-min Rain = 0
KFR1 201052Z 20011KT 28/16 A3006 RMK A01 T02750158  RH  049%=      5-min Rain = 0
KFR1 201053Z 21011KT 28/16 A3006 RMK A01 T02750158  RH  049%=      5-min Rain = 0
KFR1 201054Z 20011KT 28/16 A3006 RMK A01 T02750158  RH  049%=      5-min Rain = 0
KFR1 201055Z 21010KT 28/16 A3006 RMK A01 T02750158  RH  049%=      5-min Rain = 0
KFR1 201056Z 21010KT 28/16 A3006 RMK A01 T02750158  RH  049%=      5-min Rain = 0
KFR1 201057Z 21010KT 28/16 A3006 RMK A01 T02750158  RH  049%=      5-min Rain = 0
KFR1 201058Z 21010KT 28/16 A3006 RMK A01 T02750158  RH  049%=      5-min Rain = 0
KFR1 201059Z 21012KT 28/16 A3006 RMK A01 T02750158  RH  049%=      5-min Rain = 0
KFR1 201100Z 21010KT 28/16 A3006 RMK A01 T02750158  RH  049%=      5-min Rain = 0
KFR1 201101Z 21009KT 28/16 A3006 RMK A01 T02750158  RH  049%=      5-min Rain = 0
KFR1 201102Z 21011KT 27/16 A3006 RMK A01 T02740158  RH  049%=      5-min Rain = 0
KFR1 201103Z 20011KT 27/16 A3006 RMK A01 T02740158  RH  049%=      5-min Rain = 0
KFR1 201104Z 20010KT 27/16 A3006 RMK A01 T02740159  RH  049%=      5-min Rain = 0
KFR1 201105Z 21011KT 27/16 A3006 RMK A01 T02730158  RH  049%=      5-min Rain = 0
KFR1 201106Z 20011KT 27/16 A3006 RMK A01 T02730158  RH  049%=      5-min Rain = 0
KFR1 201107Z 20012KT 27/16 A3006 RMK A01 T02730158  RH  049%=      5-min Rain = 0
KFR1 201108Z 20011KT 27/16 A3006 RMK A01 T02730158  RH  049%=      5-min Rain = 0
KFR1 201109Z 20010KT 27/16 A3006 RMK A01 T02730158  RH  049%=      5-min Rain = 0
KFR1 201110Z 20012KT 27/16 A3006 RMK A01 T02730159  RH  050%=      5-min Rain = 0
KFR1 201111Z 20012KT 27/16 A3006 RMK A01 T02730158  RH  050%=      5-min Rain = 0
KFR1 201112Z 20012KT 27/16 A3006 RMK A01 T02730158  RH  050%=      5-min Rain = 0
KFR1 201113Z 20013KT 27/16 A3006 RMK A01 T02730158  RH  050%=      5-min Rain = 0
KFR1 201114Z 20015KT 27/16 A3006 RMK A01 T02730158  RH  049%=      5-min Rain = 0
KFR1 201115Z 20014KT 27/16 A3005 RMK A01 T02740158  RH  049%=      5-min Rain = 0
KFR1 201116Z 20015KT 28/16 A3005 RMK A01 T02750158  RH  049%=      5-min Rain = 0
KFR1 201117Z 20014KT 28/16 A3005 RMK A01 T02750159  RH  049%=      5-min Rain = 0
KFR1 201118Z 19014KT 28/16 A3005 RMK A01 T02760158  RH  049%=      5-min Rain = 0
KFR1 201119Z 19013KT 28/16 A3005 RMK A01 T02760158  RH  049%=      5-min Rain = 0
KFR1 201120Z 19015KT 28/16 A3006 RMK A01 T02750158  RH  049%=      5-min Rain = 0
KFR1 201121Z 19015KT 28/16 A3006 RMK A01 T02750158  RH  049%=      5-min Rain = 0
KFR1 201122Z 19014KT 28/16 A3006 RMK A01 T02760158  RH  049%=      5-min Rain = 0
KFR1 201123Z 20013KT 28/16 A3006 RMK A01 T02760159  RH  049%=      5-min Rain = 0
KFR1 201124Z 20013KT 28/16 A3006 RMK A01 T02750159  RH  049%=      5-min Rain = 0
KFR1 201125Z 19012KT 28/16 A3006 RMK A01 T02750159  RH  049%=      5-min Rain = 0
KFR1 201126Z 20014KT 28/16 A3006 RMK A01 T02750158  RH  049%=      5-min Rain = 0
KFR1 201127Z 20012KT 28/16 A3006 RMK A01 T02750158  RH  049%=      5-min Rain = 0
KFR1 201128Z 20012G17KT 28/16 A3006 RMK A01 T02750158  RH  049%=      5-min Rain = 0
KFR1 201129Z 20011KT 28/16 A3006 RMK A01 T02750159  RH  049%=      5-min Rain = 0
KFR1 201130Z 20012KT 28/16 A3006 RMK A01 T02750159  RH  049%=      5-min Rain = 0
KFR1 201131Z 19010KT 27/16 A3006 RMK A01 T02740159  RH  049%=      5-min Rain = 0
KFR1 201132Z 20012KT 27/16 A3006 RMK A01 T02730159  RH  050%=      5-min Rain = 0
KFR1 201133Z 20012KT 27/16 A3006 RMK A01 T02730159  RH  050%=      5-min Rain = 0
KFR1 201134Z 20011KT 27/16 A3006 RMK A01 T02730159  RH  050%=      5-min Rain = 0
KFR1 201135Z 20013KT 27/16 A3006 RMK A01 T02730159  RH  050%=      5-min Rain = 0
KFR1 201136Z 20011KT 27/16 A3006 RMK A01 T02730158  RH  050%=      5-min Rain = 0
KFR1 201137Z 19013KT 27/16 A3006 RMK A01 T02730158  RH  049%=      5-min Rain = 0
KFR1 201138Z 20012KT 27/16 A3006 RMK A01 T02730158  RH  049%=      5-min Rain = 0
KFR1 201139Z 20011KT 27/16 A3006 RMK A01 T02740158  RH  049%=      5-min Rain = 0
KFR1 201140Z 20012KT 27/16 A3006 RMK A01 T02740158  RH  049%=      5-min Rain = 0
KFR1 201141Z 20012KT 27/16 A3006 RMK A01 T02740158  RH  049%=      5-min Rain = 0
KFR1 201142Z 20013KT 27/16 A3006 RMK A01 T02740158  RH  049%=      5-min Rain = 0
KFR1 201143Z 20012KT 28/16 A3006 RMK A01 T02750158  RH  049%=      5-min Rain = 0
KFR1 201144Z 20013KT 28/16 A3006 RMK A01 T02750157  RH  049%=      5-min Rain = 0
KFR1 201145Z 20010KT 28/16 A3006 RMK A01 T02760158  RH  048%=      5-min Rain = 0
KFR1 201146Z 20009G15KT 28/16 A3006 RMK A01 T02760158  RH  048%=      5-min Rain = 0
KFR1 201147Z 20013KT 28/16 A3006 RMK A01 T02760157  RH  048%=      5-min Rain = 0
KFR1 201148Z 19011KT 28/16 A3006 RMK A01 T02780157  RH  048%=      5-min Rain = 0
KFR1 201149Z 19011KT 28/16 A3006 RMK A01 T02790157  RH  048%=      5-min Rain = 0
KFR1 201150Z 19011KT 28/16 A3007 RMK A01 T02790158  RH  048%=      5-min Rain = 0
KFR1 201151Z 19010KT 28/16 A3007 RMK A01 T02780158  RH  048%=      5-min Rain = 0
KFR1 201152Z 20010KT 28/16 A3007 RMK A01 T02770158  RH  048%=      5-min Rain = 0
KFR1 201153Z 19009KT 28/16 A3007 RMK A01 T02760158  RH  048%=      5-min Rain = 0
KFR1 201154Z 20008KT 28/16 A3007 RMK A01 T02760158  RH  049%=      5-min Rain = 0
KFR1 201155Z 19009KT 28/16 A3007 RMK A01 T02750158  RH  049%=      5-min Rain = 0
KFR1 201156Z 19009KT 28/16 A3007 RMK A01 T02750158  RH  049%=      5-min Rain = 0
KFR1 201157Z 19009KT 27/16 A3007 RMK A01 T02740158  RH  049%=      5-min Rain = 0
KFR1 201158Z 19009KT 27/16 A3007 RMK A01 T02740158  RH  049%=      5-min Rain = 0
KFR1 201159Z 20009KT 27/16 A3007 RMK A01 T02740158  RH  049%=      5-min Rain = 0
KFR1 201200Z 19008KT 27/16 A3007 RMK A01 T02740158  RH  049%=      5-min Rain = 0
KFR1 201201Z 19007KT 27/16 A3007 RMK A01 T02740158  RH  049%=      5-min Rain = 0
KFR1 201202Z 19008KT 27/16 A3007 RMK A01 T02740158  RH  049%=      5-min Rain = 0
KFR1 201203Z 19007KT 27/16 A3007 RMK A01 T02730159  RH  050%=      5-min Rain = 0
KFR1 201204Z 18007KT 27/16 A3007 RMK A01 T02720159  RH  050%=      5-min Rain = 0
KFR1 201205Z 19007KT 27/16 A3007 RMK A01 T02710158  RH  050%=      5-min Rain = 0
KFR1 201206Z 19006KT 27/16 A3007 RMK A01 T02710158  RH  050%=      5-min Rain = 0
KFR1 201207Z 18006KT 27/16 A3007 RMK A01 T02710158  RH  050%=      5-min Rain = 0
KFR1 201208Z 18005KT 27/16 A3007 RMK A01 T02710159  RH  050%=      5-min Rain = 0
KFR1 201209Z 17007KT 27/16 A3007 RMK A01 T02710159  RH  050%=      5-min Rain = 0
KFR1 201210Z 18006KT 27/16 A3007 RMK A01 T02700159  RH  050%=      5-min Rain = 0
KFR1 201211Z 18006KT 27/16 A3007 RMK A01 T02700159  RH  051%=      5-min Rain = 0
KFR1 201212Z 18006KT 27/16 A3007 RMK A01 T02700159  RH  051%=      5-min Rain = 0
KFR1 201213Z 17006KT 27/16 A3007 RMK A01 T02700159  RH  051%=      5-min Rain = 0
KFR1 201214Z 17006KT 27/16 A3008 RMK A01 T02700159  RH  051%=      5-min Rain = 0
KFR1 201215Z 17005KT 27/16 A3008 RMK A01 T02700159  RH  051%=      5-min Rain = 0
KFR1 201216Z 17005KT 27/16 A3008 RMK A01 T02700159  RH  051%=      5-min Rain = 0
KFR1 201217Z 18005KT 27/16 A3008 RMK A01 T02690159  RH  051%=      5-min Rain = 0
KFR1 201218Z 18004KT 27/16 A3008 RMK A01 T02700159  RH  051%=      5-min Rain = 0
KFR1 201219Z 18005KT 27/16 A3008 RMK A01 T02690159  RH  051%=      5-min Rain = 0
KFR1 201220Z 18005KT 27/16 A3008 RMK A01 T02690159  RH  051%=      5-min Rain = 0
KFR1 201221Z 18004KT 27/16 A3008 RMK A01 T02690159  RH  051%=      5-min Rain = 0
KFR1 201222Z 18004KT 27/16 A3008 RMK A01 T02690159  RH  051%=      5-min Rain = 0
KFR1 201223Z 18004KT 27/16 A3008 RMK A01 T02690159  RH  051%=      5-min Rain = 0
KFR1 201224Z 18004KT 27/16 A3008 RMK A01 T02690159  RH  051%=      5-min Rain = 0
KFR1 201225Z 18004KT 27/16 A3008 RMK A01 T02690159  RH  051%=      5-min Rain = 0
KFR1 201226Z 18004KT 27/16 A3008 RMK A01 T02690160  RH  051%=      5-min Rain = 0
KFR1 201227Z 18005KT 27/16 A3008 RMK A01 T02690160  RH  051%=      5-min Rain = 0
KFR1 201228Z 18005KT 27/16 A3008 RMK A01 T02680161  RH  052%=      5-min Rain = 0
KFR1 201229Z 18004KT 27/16 A3008 RMK A01 T02680161  RH  052%=      5-min Rain = 0
KFR1 201230Z 18005KT 27/16 A3008 RMK A01 T02680161  RH  052%=      5-min Rain = 0
KFR1 201231Z 18005KT 27/16 A3008 RMK A01 T02670161  RH  052%=      5-min Rain = 0
KFR1 201232Z 18005KT 27/16 A3008 RMK A01 T02670160  RH  052%=      5-min Rain = 0
KFR1 201233Z 17006KT 27/16 A3008 RMK A01 T02670161  RH  052%=      5-min Rain = 0
KFR1 201234Z 18005KT 27/16 A3008 RMK A01 T02670161  RH  052%=      5-min Rain = 0
KFR1 201235Z 18005KT 27/16 A3008 RMK A01 T02660161  RH  052%=      5-min Rain = 0
KFR1 201236Z 18005KT 27/16 A3008 RMK A01 T02660161  RH  052%=      5-min Rain = 0
KFR1 201237Z 18004KT 27/16 A3008 RMK A01 T02660162  RH  053%=      5-min Rain = 0
KFR1 201238Z 18004KT 27/16 A3008 RMK A01 T02660162  RH  053%=      5-min Rain = 0
KFR1 201239Z 18005KT 27/16 A3008 RMK A01 T02650162  RH  053%=      5-min Rain = 0
KFR1 201240Z 18004KT 27/16 A3008 RMK A01 T02650162  RH  053%=      5-min Rain = 0
KFR1 201241Z 18004KT 27/16 A3008 RMK A01 T02650162  RH  053%=      5-min Rain = 0
KFR1 201242Z 18005KT 27/16 A3008 RMK A01 T02650162  RH  053%=      5-min Rain = 0
KFR1 201243Z 17005KT 27/16 A3008 RMK A01 T02650162  RH  053%=      5-min Rain = 0
KFR1 201244Z 18005KT 27/16 A3008 RMK A01 T02650162  RH  053%=      5-min Rain = 0
KFR1 201245Z 18005KT 27/16 A3008 RMK A01 T02650162  RH  053%=      5-min Rain = 0
KFR1 201246Z 18005KT 27/16 A3008 RMK A01 T02650162  RH  053%=      5-min Rain = 0
KFR1 201247Z 18005KT 27/16 A3008 RMK A01 T02650162  RH  053%=      5-min Rain = 0
KFR1 201248Z 17005KT 27/16 A3008 RMK A01 T02660162  RH  053%=      5-min Rain = 0
KFR1 201249Z 17006KT 27/16 A3008 RMK A01 T02660161  RH  053%=      5-min Rain = 0
KFR1 201250Z 17005KT 27/16 A3008 RMK A01 T02670162  RH  052%=      5-min Rain = 0
KFR1 201251Z 18004KT 27/16 A3008 RMK A01 T02680161  RH  052%=      5-min Rain = 0
KFR1 201252Z 17004KT 27/16 A3008 RMK A01 T02680162  RH  052%=      5-min Rain = 0
KFR1 201253Z 17004KT 27/16 A3008 RMK A01 T02690163  RH  052%=      5-min Rain = 0
KFR1 201254Z 17004KT 27/16 A3009 RMK A01 T02690162  RH  052%=      5-min Rain = 0
KFR1 201255Z 17003KT 27/16 A3009 RMK A01 T02690163  RH  052%=      5-min Rain = 0
KFR1 201256Z 17003KT 27/16 A3009 RMK A01 T02690163  RH  052%=      5-min Rain = 0
KFR1 201257Z 18003KT 27/16 A3009 RMK A01 T02690163  RH  052%=      5-min Rain = 0
KFR1 201258Z 18003KT 27/17 A3009 RMK A01 T02680165  RH  053%=      5-min Rain = 0
KFR1 201259Z 17004KT 27/17 A3009 RMK A01 T02680165  RH  053%=      5-min Rain = 0
KFR1 201300Z 17004KT 27/16 A3009 RMK A01 T02670163  RH  053%=      5-min Rain = 0
KFR1 201301Z 16005KT 27/16 A3009 RMK A01 T02680163  RH  053%=      5-min Rain = 0
KFR1 201302Z 16004KT 27/16 A3009 RMK A01 T02680163  RH  053%=      5-min Rain = 0
KFR1 201303Z 16004KT 27/16 A3009 RMK A01 T02680163  RH  053%=      5-min Rain = 0
KFR1 201304Z 16003KT 27/16 A3009 RMK A01 T02680163  RH  052%=      5-min Rain = 0
KFR1 201305Z 16003KT 27/16 A3009 RMK A01 T02680164  RH  053%=      5-min Rain = 0
KFR1 201306Z 18004KT 27/16 A3009 RMK A01 T02690164  RH  053%=      5-min Rain = 0
KFR1 201307Z 21004KT 27/16 A3009 RMK A01 T02690159  RH  051%=      5-min Rain = 0
KFR1 201308Z 19004KT 27/16 A3009 RMK A01 T02710159  RH  050%=      5-min Rain = 0
KFR1 201309Z 17003KT 27/16 A3009 RMK A01 T02730162  RH  051%=      5-min Rain = 0
KFR1 201310Z 16004KT 27/16 A3009 RMK A01 T02720162  RH  051%=      5-min Rain = 0
KFR1 201311Z 15002KT 27/16 A3009 RMK A01 T02720162  RH  051%=      5-min Rain = 0
KFR1 201312Z 17002KT 27/16 A3009 RMK A01 T02720164  RH  052%=      5-min Rain = 0
KFR1 201313Z 16003KT 27/17 A3009 RMK A01 T02720165  RH  052%=      5-min Rain = 0
KFR1 201314Z 14003KT 27/17 A3009 RMK A01 T02720165  RH  052%=      5-min Rain = 0
KFR1 201315Z 15002KT 27/16 A3009 RMK A01 T02720164  RH  052%=      5-min Rain = 0
KFR1 201316Z 16003KT 27/16 A3009 RMK A01 T02720164  RH  052%=      5-min Rain = 0
KFR1 201317Z 16003KT 27/17 A3009 RMK A01 T02720165  RH  052%=      5-min Rain = 0
KFR1 201318Z 16004KT 27/17 A3009 RMK A01 T02720165  RH  052%=      5-min Rain = 0
KFR1 201319Z 16003KT 27/16 A3009 RMK A01 T02720164  RH  052%=      5-min Rain = 0
KFR1 201320Z 15002KT 27/17 A3009 RMK A01 T02720165  RH  052%=      5-min Rain = 0
KFR1 201321Z 14003KT 27/16 A3009 RMK A01 T02720164  RH  052%=      5-min Rain = 0
KFR1 201322Z 15003KT 27/16 A3009 RMK A01 T02720164  RH  052%=      5-min Rain = 0
KFR1 201323Z 14003KT 27/17 A3009 RMK A01 T02720165  RH  052%=      5-min Rain = 0
KFR1 201324Z 15004KT 27/16 A3009 RMK A01 T02720164  RH  052%=      5-min Rain = 0
KFR1 201325Z 16003KT 27/17 A3009 RMK A01 T02720165  RH  052%=      5-min Rain = 0
KFR1 201326Z 16003KT 27/17 A3009 RMK A01 T02730165  RH  052%=      5-min Rain = 0
KFR1 201327Z 16003KT 27/17 A3009 RMK A01 T02730165  RH  052%=      5-min Rain = 0
KFR1 201328Z 15002KT 27/17 A3009 RMK A01 T02730165  RH  052%=      5-min Rain = 0
KFR1 201329Z 16003KT 27/17 A3009 RMK A01 T02730165  RH  052%=      5-min Rain = 0
KFR1 201330Z 14004KT 27/16 A3009 RMK A01 T02730164  RH  051%=      5-min Rain = 0
KFR1 201331Z 14002KT 27/16 A3009 RMK A01 T02730163  RH  051%=      5-min Rain = 0
KFR1 201332Z 14002KT 27/16 A3009 RMK A01 T02730164  RH  051%=      5-min Rain = 0
KFR1 201333Z 14003KT 27/16 A3009 RMK A01 T02730163  RH  051%=      5-min Rain = 0
KFR1 201334Z 14002KT 27/16 A3009 RMK A01 T02740163  RH  051%=      5-min Rain = 0
KFR1 201335Z 15003KT 27/16 A3009 RMK A01 T02740164  RH  051%=      5-min Rain = 0
KFR1 201336Z 14004KT 27/16 A3009 RMK A01 T02740163  RH  051%=      5-min Rain = 0
KFR1 201337Z 14002KT 27/16 A3009 RMK A01 T02740163  RH  051%=      5-min Rain = 0
KFR1 201338Z 16003KT 27/16 A3009 RMK A01 T02740163  RH  051%=      5-min Rain = 0
KFR1 201339Z 15003KT 28/16 A3009 RMK A01 T02750163  RH  050%=      5-min Rain = 0
KFR1 201340Z 16003KT 28/16 A3009 RMK A01 T02750163  RH  050%=      5-min Rain = 0
KFR1 201341Z 16004KT 28/16 A3009 RMK A01 T02760164  RH  051%=      5-min Rain = 0
KFR1 201342Z 16004KT 28/16 A3009 RMK A01 T02760164  RH  050%=      5-min Rain = 0
KFR1 201343Z 16003KT 28/17 A3009 RMK A01 T02760165  RH  051%=      5-min Rain = 0
KFR1 201344Z 17003KT 28/17 A3009 RMK A01 T02770166  RH  051%=      5-min Rain = 0
KFR1 201345Z 17002KT 28/17 A3009 RMK A01 T02760165  RH  051%=      5-min Rain = 0
KFR1 201346Z 19002KT 28/17 A3009 RMK A01 T02760165  RH  051%=      5-min Rain = 0
KFR1 201347Z 20002KT 28/17 A3009 RMK A01 T02760165  RH  051%=      5-min Rain = 0
KFR1 201348Z 22002KT 28/17 A301 RMK A01 T02760165  RH  051%=      5-min Rain = 0
KFR1 201349Z 21001KT 28/17 A3009 RMK A01 T02760166  RH  051%=      5-min Rain = 0
KFR1 201350Z 21001KT 28/17 A3009 RMK A01 T02760165  RH  051%=      5-min Rain = 0
KFR1 201351Z 20002KT 28/16 A3009 RMK A01 T02760164  RH  051%=      5-min Rain = 0
KFR1 201352Z 21003KT 28/17 A3009 RMK A01 T02760166  RH  051%=      5-min Rain = 0
KFR1 201353Z 22003KT 28/17 A3009 RMK A01 T02760166  RH  051%=      5-min Rain = 0
KFR1 201354Z 22004KT 28/17 A3009 RMK A01 T02760167  RH  051%=      5-min Rain = 0
KFR1 201355Z 22004KT 28/16 A3009 RMK A01 T02770164  RH  050%=      5-min Rain = 0
KFR1 201356Z 21004KT 28/17 A3009 RMK A01 T02770165  RH  051%=      5-min Rain = 0
KFR1 201357Z 21005KT 28/16 A3009 RMK A01 T02780164  RH  050%=      5-min Rain = 0
KFR1 201358Z 21006KT 28/16 A3009 RMK A01 T02780162  RH  049%=      5-min Rain = 0
KFR1 201359Z 21006KT 28/16 A3009 RMK A01 T02790164  RH  050%=      5-min Rain = 0
KFR1 201400Z 21006KT 28/16 A3009 RMK A01 T02800160  RH  048%=      5-min Rain = 0
KFR1 201401Z 21006KT 28/16 A3009 RMK A01 T02800162  RH  048%=      5-min Rain = 0
KFR1 201402Z 20006KT 28/16 A3009 RMK A01 T02810161  RH  048%=      5-min Rain = 0
KFR1 201403Z 20007KT 28/16 A3008 RMK A01 T02810161  RH  048%=      5-min Rain = 0
KFR1 201404Z 20007KT 28/16 A3008 RMK A01 T02810161  RH  048%=      5-min Rain = 0
KFR1 201405Z 20007KT 28/16 A3008 RMK A01 T02820161  RH  048%=      5-min Rain = 0
KFR1 201406Z 20007KT 28/16 A3008 RMK A01 T02820160  RH  048%=      5-min Rain = 0
KFR1 201407Z 20007KT 28/16 A3008 RMK A01 T02820160  RH  048%=      5-min Rain = 0
KFR1 201408Z 20007KT 28/16 A3008 RMK A01 T02820161  RH  048%=      5-min Rain = 0
KFR1 201409Z 20008KT 28/16 A3008 RMK A01 T02820160  RH  047%=      5-min Rain = 0
KFR1 201410Z 19006KT 28/16 A3008 RMK A01 T02820160  RH  048%=      5-min Rain = 0
KFR1 201411Z 20008KT 28/16 A3008 RMK A01 T02820158  RH  047%=      5-min Rain = 0
KFR1 201412Z 20008KT 28/16 A3009 RMK A01 T02830159  RH  047%=      5-min Rain = 0
KFR1 201413Z 20008KT 28/16 A3009 RMK A01 T02830159  RH  047%=      5-min Rain = 0
KFR1 201414Z 20006KT 28/16 A3009 RMK A01 T02830159  RH  047%=      5-min Rain = 0
KFR1 201415Z 20007KT 28/16 A3009 RMK A01 T02830158  RH  047%=      5-min Rain = 0
KFR1 201416Z 20007KT 28/16 A3009 RMK A01 T02830160  RH  047%=      5-min Rain = 0
KFR1 201417Z 20007KT 28/16 A3009 RMK A01 T02830159  RH  047%=      5-min Rain = 0
KFR1 201418Z 21008KT 28/16 A3009 RMK A01 T02830158  RH  047%=      5-min Rain = 0
KFR1 201419Z 21007KT 28/16 A3009 RMK A01 T02830158  RH  047%=      5-min Rain = 0
KFR1 201420Z 20008KT 28/16 A3009 RMK A01 T02830159  RH  047%=      5-min Rain = 0
KFR1 201421Z 20008KT 28/16 A3009 RMK A01 T02830160  RH  047%=      5-min Rain = 0
KFR1 201422Z 21009KT 28/16 A3009 RMK A01 T02840160  RH  047%=      5-min Rain = 0
KFR1 201423Z 21008KT 28/16 A3009 RMK A01 T02830159  RH  047%=      5-min Rain = 0
KFR1 201424Z 20009KT 28/16 A3009 RMK A01 T02840159  RH  047%=      5-min Rain = 0
KFR1 201425Z 20008KT 28/16 A3009 RMK A01 T02840158  RH  046%=      5-min Rain = 0
KFR1 201426Z 20009KT 28/16 A3009 RMK A01 T02840158  RH  046%=      5-min Rain = 0
KFR1 201427Z 21008KT 29/16 A301 RMK A01 T02850159  RH  047%=      5-min Rain = 0
KFR1 201428Z 20010KT 29/16 A3009 RMK A01 T02850158  RH  046%=      5-min Rain = 0
KFR1 201429Z 21011KT 29/16 A3009 RMK A01 T02850158  RH  046%=      5-min Rain = 0
KFR1 201430Z 21011KT 29/16 A3009 RMK A01 T02850157  RH  046%=      5-min Rain = 0
KFR1 201431Z 21010KT 29/16 A3009 RMK A01 T02860158  RH  046%=      5-min Rain = 0
KFR1 201432Z 21012KT 29/16 A3009 RMK A01 T02860157  RH  046%=      5-min Rain = 0
KFR1 201433Z 21011KT 29/16 A301 RMK A01 T02860157  RH  045%=      5-min Rain = 0
KFR1 201434Z 21011KT 29/16 A301 RMK A01 T02870157  RH  045%=      5-min Rain = 0
KFR1 201435Z 21012KT 29/16 A3009 RMK A01 T02870157  RH  045%=      5-min Rain = 0
KFR1 201436Z 21013KT 29/16 A3009 RMK A01 T02870157  RH  045%=      5-min Rain = 0
KFR1 201437Z 21013KT 29/16 A3009 RMK A01 T02880157  RH  045%=      5-min Rain = 0
KFR1 201438Z 22012KT 29/16 A3009 RMK A01 T02880156  RH  045%=      5-min Rain = 0
KFR1 201439Z 22013KT 29/16 A3009 RMK A01 T02890156  RH  045%=      5-min Rain = 0
KFR1 201440Z 22014KT 29/16 A3009 RMK A01 T02890156  RH  044%=      5-min Rain = 0
KFR1 201441Z 22013KT 29/16 A3009 RMK A01 T02890155  RH  044%=      5-min Rain = 0
KFR1 201442Z 22012G17KT 29/16 A3009 RMK A01 T02900156  RH  044%=      5-min Rain = 0
KFR1 201443Z 23010KT 29/16 A3009 RMK A01 T02900156  RH  044%=      5-min Rain = 0
KFR1 201444Z 22012KT 29/16 A3009 RMK A01 T02910156  RH  044%=      5-min Rain = 0
KFR1 201445Z 23012KT 29/16 A3009 RMK A01 T02920156  RH  044%=      5-min Rain = 0
KFR1 201446Z 22011KT 29/16 A3009 RMK A01 T02920155  RH  044%=      5-min Rain = 0
KFR1 201447Z 23012KT 29/16 A3009 RMK A01 T02920155  RH  044%=      5-min Rain = 0
KFR1 201448Z 23011KT 29/16 A301 RMK A01 T02920155  RH  043%=      5-min Rain = 0
KFR1 201449Z 22012KT 29/16 A301 RMK A01 T02920155  RH  043%=      5-min Rain = 0
KFR1 201450Z 22011KT 29/16 A301 RMK A01 T02920155  RH  043%=      5-min Rain = 0
KFR1 201451Z 23009KT 29/16 A301 RMK A01 T02920157  RH  044%=      5-min Rain = 0
KFR1 201452Z 22009KT 29/16 A3009 RMK A01 T02920156  RH  044%=      5-min Rain = 0
KFR1 201453Z 22011KT 29/16 A301 RMK A01 T02920157  RH  044%=      5-min Rain = 0
KFR1 201454Z 22010KT 29/16 A301 RMK A01 T02920156  RH  044%=      5-min Rain = 0
KFR1 201455Z 22010KT 29/16 A301 RMK A01 T02920157  RH  044%=      5-min Rain = 0
KFR1 201456Z 21011KT 29/16 A301 RMK A01 T02910157  RH  044%=      5-min Rain = 0
KFR1 201457Z 22014KT 29/16 A301 RMK A01 T02920157  RH  044%=      5-min Rain = 0
KFR1 201458Z 21013KT 29/16 A3009 RMK A01 T02910156  RH  044%=      5-min Rain = 0
KFR1 201459Z 21014KT 29/16 A3009 RMK A01 T02910156  RH  044%=      5-min Rain = 0
KFR1 201500Z 22012KT 29/16 A3009 RMK A01 T02910156  RH  044%=      5-min Rain = 0
KFR1 201501Z 21012KT 29/16 A3009 RMK A01 T02910156  RH  044%=      5-min Rain = 0
KFR1 201502Z 22014KT 29/15 A3009 RMK A01 T02910154  RH  044%=      5-min Rain = 0
KFR1 201503Z 22014KT 29/15 A3009 RMK A01 T02910154  RH  043%=      5-min Rain = 0
KFR1 201504Z 22013KT 29/15 A3009 RMK A01 T02910154  RH  043%=      5-min Rain = 0
KFR1 201505Z 22012KT 29/15 A3009 RMK A01 T02910152  RH  043%=      5-min Rain = 0
KFR1 201506Z 22013KT 29/15 A3009 RMK A01 T02910153  RH  043%=      5-min Rain = 0
KFR1 201507Z 22012G17KT 29/15 A3009 RMK A01 T02910150  RH  042%=      5-min Rain = 0
KFR1 201508Z 22011KT 29/15 A3009 RMK A01 T02910152  RH  043%=      5-min Rain = 0
KFR1 201509Z 23011KT 29/15 A3009 RMK A01 T02910154  RH  044%=      5-min Rain = 0
KFR1 201510Z 23012KT 29/15 A3009 RMK A01 T02900153  RH  043%=      5-min Rain = 0
KFR1 201511Z 23011KT 29/15 A3009 RMK A01 T02890154  RH  044%=      5-min Rain = 0
KFR1 201512Z 22014KT 29/15 A3009 RMK A01 T02890152  RH  043%=      5-min Rain = 0
KFR1 201513Z 22013KT 29/15 A3009 RMK A01 T02890152  RH  043%=      5-min Rain = 0
KFR1 201514Z 22013KT 29/15 A3009 RMK A01 T02880152  RH  043%=      5-min Rain = 0
KFR1 201515Z 22012KT 29/15 A3009 RMK A01 T02880152  RH  044%=      5-min Rain = 0
KFR1 201516Z 22011KT 29/15 A3009 RMK A01 T02870153  RH  044%=      5-min Rain = 0
KFR1 201517Z 23012KT 29/15 A3009 RMK A01 T02870151  RH  044%=      5-min Rain = 0
KFR1 201518Z 23012KT 29/15 A3009 RMK A01 T02870148  RH  043%=      5-min Rain = 0
KFR1 201519Z 23011KT 29/15 A3009 RMK A01 T02870150  RH  043%=      5-min Rain = 0
KFR1 201520Z 23013KT 29/15 A3009 RMK A01 T02870149  RH  043%=      5-min Rain = 0
KFR1 201521Z 23010KT 29/15 A3009 RMK A01 T02870150  RH  043%=      5-min Rain = 0
KFR1 201522Z 23011KT 29/15 A3009 RMK A01 T02870151  RH  044%=      5-min Rain = 0
KFR1 201523Z 23010KT 29/15 A3009 RMK A01 T02860150  RH  044%=      5-min Rain = 0
KFR1 201524Z 23010KT 29/15 A3009 RMK A01 T02860151  RH  044%=      5-min Rain = 0
KFR1 201525Z 23011KT 29/15 A3009 RMK A01 T02850150  RH  044%=      5-min Rain = 0
KFR1 201526Z 22010KT 29/15 A3009 RMK A01 T02850150  RH  044%=      5-min Rain = 0
KFR1 201527Z 23009KT 29/15 A3009 RMK A01 T02850148  RH  043%=      5-min Rain = 0
KFR1 201528Z 23009KT 29/15 A3009 RMK A01 T02850145  RH  042%=      5-min Rain = 0
KFR1 201529Z 22009KT 29/15 A3009 RMK A01 T02860147  RH  043%=      5-min Rain = 0
KFR1 201530Z 22009KT 29/15 A3009 RMK A01 T02860147  RH  043%=      5-min Rain = 0
KFR1 201531Z 21007KT 29/15 A3009 RMK A01 T02850148  RH  043%=      5-min Rain = 0
KFR1 201532Z 22007KT 29/15 A3009 RMK A01 T02850148  RH  043%=      5-min Rain = 0
KFR1 201533Z 22008KT 29/15 A3009 RMK A01 T02850148  RH  043%=      5-min Rain = 0
KFR1 201534Z 22007KT 28/15 A3009 RMK A01 T02840148  RH  043%=      5-min Rain = 0
KFR1 201535Z 21007KT 28/15 A3009 RMK A01 T02840149  RH  044%=      5-min Rain = 0
KFR1 201536Z 21007KT 28/15 A3009 RMK A01 T02830149  RH  044%=      5-min Rain = 0
KFR1 201537Z 21007KT 28/15 A3009 RMK A01 T02830148  RH  044%=      5-min Rain = 0
KFR1 201538Z 21008KT 28/15 A3009 RMK A01 T02830149  RH  044%=      5-min Rain = 0
KFR1 201539Z 21008KT 28/15 A3009 RMK A01 T02820150  RH  044%=      5-min Rain = 0
KFR1 201540Z 21008KT 28/15 A3009 RMK A01 T02820150  RH  044%=      5-min Rain = 0
KFR1 201541Z 20009KT 28/15 A301 RMK A01 T02810151  RH  045%=      5-min Rain = 0
KFR1 201542Z 20008KT 28/15 A301 RMK A01 T02810153  RH  046%=      5-min Rain = 0
KFR1 201543Z 20009KT 28/15 A301 RMK A01 T02800152  RH  046%=      5-min Rain = 0
KFR1 201544Z 20009KT 28/15 A301 RMK A01 T02790151  RH  046%=      5-min Rain = 0
KFR1 201545Z 20010KT 28/15 A301 RMK A01 T02790149  RH  045%=      5-min Rain = 0
KFR1 201546Z 20010KT 28/15 A301 RMK A01 T02790147  RH  045%=      5-min Rain = 0
KFR1 201547Z 20010KT 28/15 A301 RMK A01 T02790145  RH  044%=      5-min Rain = 0
KFR1 201548Z 20009KT 28/14 A301 RMK A01 T02800144  RH  043%=      5-min Rain = 0
KFR1 201549Z 19009KT 28/14 A301 RMK A01 T02790144  RH  043%=      5-min Rain = 0
KFR1 201550Z 19009KT 28/15 A301 RMK A01 T02800145  RH  044%=      5-min Rain = 0
KFR1 201551Z 20009KT 28/15 A301 RMK A01 T02800146  RH  044%=      5-min Rain = 0
KFR1 201552Z 21011KT 28/15 A301 RMK A01 T02800145  RH  044%=      5-min Rain = 0
KFR1 201553Z 22012G17KT 28/14 A301 RMK A01 T02800143  RH  043%=      5-min Rain = 0
KFR1 201554Z 21014G19KT 28/14 A301 RMK A01 T02800139  RH  042%=      5-min Rain = 0
KFR1 201555Z 22015KT 28/13 A301 RMK A01 T02820132  RH  040%=      5-min Rain = 0
KFR1 201556Z 21014KT 28/13 A301 RMK A01 T02840131  RH  039%=      5-min Rain = 0
KFR1 201557Z 21015KT 29/13 A301 RMK A01 T02850130  RH  038%=      5-min Rain = 0
KFR1 201558Z 21014KT 29/13 A301 RMK A01 T02850129  RH  038%=      5-min Rain = 0
KFR1 201559Z 21016KT 29/13 A301 RMK A01 T02860128  RH  038%=      5-min Rain = 0
KFR1 201600Z 22014KT 29/13 A301 RMK A01 T02870129  RH  038%=      5-min Rain = 0
KFR1 201601Z 22014KT 29/13 A301 RMK A01 T02870131  RH  038%=      5-min Rain = 0
KFR1 201602Z 22014KT 29/13 A301 RMK A01 T02860132  RH  039%=      5-min Rain = 0
KFR1 201603Z 22013KT 29/13 A301 RMK A01 T02850133  RH  039%=      5-min Rain = 0
KFR1 201604Z 21012KT 28/14 A301 RMK A01 T02830135  RH  040%=      5-min Rain = 0
KFR1 201605Z 21013KT 28/14 A301 RMK A01 T02810137  RH  041%=      5-min Rain = 0
KFR1 201606Z 21013KT 28/14 A301 RMK A01 T02790138  RH  042%=      5-min Rain = 0
KFR1 201607Z 21013KT 28/14 A301 RMK A01 T02770140  RH  043%=      5-min Rain = 0
KFR1 201608Z 21016KT 28/14 A3011 RMK A01 T02760140  RH  043%=      5-min Rain = 0
KFR1 201609Z 22014KT 27/14 A301 RMK A01 T02730141  RH  044%=      5-min Rain = 0
KFR1 201610Z 22012KT 27/14 A301 RMK A01 T02720140  RH  044%=      5-min Rain = 0
KFR1 201611Z 22011KT 27/14 A301 RMK A01 T02710142  RH  045%=      5-min Rain = 0
KFR1 201612Z 22012KT 27/14 A301 RMK A01 T02700144  RH  046%=      5-min Rain = 0
KFR1 201613Z 21013KT 27/14 A301 RMK A01 T02690141  RH  045%=      5-min Rain = 0
KFR1 201614Z 21012KT 27/14 A301 RMK A01 T02690143  RH  046%=      5-min Rain = 0
KFR1 201615Z 20012KT 27/15 A301 RMK A01 T02680145  RH  047%=      5-min Rain = 0
KFR1 201616Z 20012KT 27/15 A301 RMK A01 T02660147  RH  048%=      5-min Rain = 0
KFR1 201617Z 19011KT 26/15 A3011 RMK A01 T02640148  RH  049%=      5-min Rain = 0
KFR1 201618Z 19013KT 26/15 A3011 RMK A01 T02630148  RH  049%=      5-min Rain = 0
KFR1 201619Z 20012KT 26/15 A3011 RMK A01 T02630146  RH  048%=      5-min Rain = 0
KFR1 201620Z 20012KT 26/15 A301 RMK A01 T02630145  RH  048%=      5-min Rain = 0
KFR1 201621Z 20014KT 26/14 A3011 RMK A01 T02640144  RH  048%=      5-min Rain = 0
KFR1 201622Z 21014KT 27/14 A3011 RMK A01 T02650143  RH  047%=      5-min Rain = 0
KFR1 201623Z 21016KT 27/14 A3011 RMK A01 T02670141  RH  046%=      5-min Rain = 0
KFR1 201624Z 21015KT 27/14 A3011 RMK A01 T02710137  RH  044%=      5-min Rain = 0
KFR1 201625Z 21014KT 27/14 A3011 RMK A01 T02740137  RH  043%=      5-min Rain = 0
KFR1 201626Z 21013KT 28/14 A3011 RMK A01 T02750136  RH  042%=      5-min Rain = 0
KFR1 201627Z 21012KT 28/14 A301 RMK A01 T02760137  RH  042%=      5-min Rain = 0
KFR1 201628Z 22014KT 28/14 A301 RMK A01 T02760137  RH  042%=      5-min Rain = 0
KFR1 201629Z 22012KT 28/14 A301 RMK A01 T02760139  RH  043%=      5-min Rain = 0
KFR1 201630Z 22012KT 28/14 A301 RMK A01 T02750140  RH  044%=      5-min Rain = 0
KFR1 201631Z 22012G17KT 28/14 A301 RMK A01 T02750140  RH  044%=      5-min Rain = 0
KFR1 201632Z 23014KT 28/14 A301 RMK A01 T02750140  RH  044%=      5-min Rain = 0
KFR1 201633Z 22015KT 28/14 A301 RMK A01 T02750141  RH  044%=      5-min Rain = 0
KFR1 201634Z 22015KT 28/14 A301 RMK A01 T02750143  RH  044%=      5-min Rain = 0
KFR1 201635Z 22015G20KT 27/14 A301 RMK A01 T02740142  RH  044%=      5-min Rain = 0
KFR1 201636Z 22014KT 28/14 A301 RMK A01 T02750143  RH  044%=      5-min Rain = 0
KFR1 201637Z 22013KT 28/14 A301 RMK A01 T02750143  RH  045%=      5-min Rain = 0
KFR1 201638Z 23015KT 28/14 A301 RMK A01 T02750143  RH  044%=      5-min Rain = 0
KFR1 201639Z 23016KT 28/14 A301 RMK A01 T02750143  RH  044%=      5-min Rain = 0
KFR1 201640Z 23016KT 28/14 A301 RMK A01 T02760142  RH  044%=      5-min Rain = 0
KFR1 201641Z 23013KT 28/14 A301 RMK A01 T02770141  RH  043%=      5-min Rain = 0
KFR1 201642Z 24012KT 28/14 A301 RMK A01 T02800141  RH  042%=      5-min Rain = 0
KFR1 201643Z 25014KT 28/14 A301 RMK A01 T02820138  RH  041%=      5-min Rain = 0
KFR1 201644Z 25013KT 29/14 A301 RMK A01 T02850139  RH  041%=      5-min Rain = 0
KFR1 201645Z 25012KT 29/14 A301 RMK A01 T02870139  RH  040%=      5-min Rain = 0
KFR1 201646Z 24012KT 29/14 A301 RMK A01 T02870139  RH  040%=      5-min Rain = 0
KFR1 201647Z 24010KT 29/14 A301 RMK A01 T02880139  RH  040%=      5-min Rain = 0
KFR1 201648Z 24009KT 29/14 A301 RMK A01 T02880141  RH  041%=      5-min Rain = 0
KFR1 201649Z 24010KT 29/14 A301 RMK A01 T02870143  RH  041%=      5-min Rain = 0
KFR1 201650Z 24009KT 29/14 A301 RMK A01 T02860144  RH  042%=      5-min Rain = 0
KFR1 201651Z 23010KT 29/15 A301 RMK A01 T02850146  RH  043%=      5-min Rain = 0
KFR1 201652Z 23011KT 28/15 A301 RMK A01 T02840146  RH  043%=      5-min Rain = 0
KFR1 201653Z 23011KT 28/15 A301 RMK A01 T02830151  RH  044%=      5-min Rain = 0
KFR1 201654Z 22009KT 28/15 A301 RMK A01 T02810154  RH  046%=      5-min Rain = 0
KFR1 201655Z 23011KT 28/15 A301 RMK A01 T02780153  RH  047%=      5-min Rain = 0
KFR1 201656Z 24013KT 28/15 A301 RMK A01 T02770150  RH  046%=      5-min Rain = 0
KFR1 201657Z 24013KT 28/15 A301 RMK A01 T02790145  RH  044%=      5-min Rain = 0
KFR1 201658Z 24010KT 28/15 A301 RMK A01 T02820148  RH  044%=      5-min Rain = 0
KFR1 201659Z 23011KT 28/15 A301 RMK A01 T02820150  RH  044%=      5-min Rain = 0
KFR1 201700Z 23012KT 28/15 A3009 RMK A01 T02830148  RH  044%=      5-min Rain = 0
KFR1 201701Z 23012KT 28/15 A3009 RMK A01 T02820150  RH  044%=      5-min Rain = 0
KFR1 201702Z 24012KT 28/15 A3009 RMK A01 T02820149  RH  044%=      5-min Rain = 0
KFR1 201703Z 24012KT 28/15 A3009 RMK A01 T02820149  RH  044%=      5-min Rain = 0
KFR1 201704Z 23016KT 28/15 A301 RMK A01 T02820150  RH  044%=      5-min Rain = 0
KFR1 201705Z 24015KT 28/15 A301 RMK A01 T02820149  RH  044%=      5-min Rain = 0
KFR1 201706Z 24014KT 28/15 A301 RMK A01 T02820148  RH  044%=      5-min Rain = 0
KFR1 201707Z 24015KT 28/15 A301 RMK A01 T02840145  RH  043%=      5-min Rain = 0
KFR1 201708Z 23013KT 29/15 A301 RMK A01 T02860148  RH  043%=      5-min Rain = 0
KFR1 201709Z 23015KT 29/15 A301 RMK A01 T02850149  RH  043%=      5-min Rain = 0
KFR1 201710Z 23014G19KT 28/15 A301 RMK A01 T02840149  RH  044%=      5-min Rain = 0
KFR1 201711Z 23015KT 28/15 A301 RMK A01 T02830150  RH  044%=      5-min Rain = 0
KFR1 201712Z 23014KT 28/15 A301 RMK A01 T02820149  RH  044%=      5-min Rain = 0
KFR1 201713Z 23015KT 28/15 A301 RMK A01 T02820148  RH  044%=      5-min Rain = 0
KFR1 201714Z 23013G18KT 28/15 A301 RMK A01 T02820147  RH  044%=      5-min Rain = 0
KFR1 201715Z 23012KT 28/15 A301 RMK A01 T02830148  RH  044%=      5-min Rain = 0
KFR1 201716Z 23013KT 28/15 A301 RMK A01 T02830149  RH  044%=      5-min Rain = 0
KFR1 201717Z 23014KT 28/15 A301 RMK A01 T02830149  RH  044%=      5-min Rain = 0
KFR1 201718Z 22015KT 28/15 A301 RMK A01 T02830150  RH  044%=      5-min Rain = 0
KFR1 201719Z 23015KT 28/15 A301 RMK A01 T02820149  RH  044%=      5-min Rain = 0
KFR1 201720Z 23014KT 28/15 A301 RMK A01 T02820150  RH  045%=      5-min Rain = 0
KFR1 201721Z 22015KT 28/15 A301 RMK A01 T02820150  RH  044%=      5-min Rain = 0
KFR1 201722Z 23014KT 28/15 A301 RMK A01 T02820152  RH  045%=      5-min Rain = 0
KFR1 201723Z 23016KT 28/15 A301 RMK A01 T02810152  RH  045%=      5-min Rain = 0
KFR1 201724Z 23018KT 28/15 A301 RMK A01 T02810149  RH  045%=      5-min Rain = 0
KFR1 201725Z 23015KT 28/15 A3009 RMK A01 T02820150  RH  045%=      5-min Rain = 0
KFR1 201726Z 23014KT 28/15 A3009 RMK A01 T02820151  RH  045%=      5-min Rain = 0
KFR1 201727Z 23013KT 28/15 A3009 RMK A01 T02820151  RH  045%=      5-min Rain = 0
KFR1 201728Z 22015KT 28/15 A3009 RMK A01 T02820152  RH  045%=      5-min Rain = 0
KFR1 201729Z 23014KT 28/15 A3009 RMK A01 T02830152  RH  045%=      5-min Rain = 0
KFR1 201730Z 24013KT 28/15 A3009 RMK A01 T02830152  RH  045%=      5-min Rain = 0
KFR1 201731Z 23013KT 28/15 A3009 RMK A01 T02830152  RH  045%=      5-min Rain = 0
KFR1 201732Z 23015KT 28/15 A3009 RMK A01 T02840152  RH  045%=      5-min Rain = 0
KFR1 201733Z 23017KT 28/15 A3009 RMK A01 T02840151  RH  044%=      5-min Rain = 0
KFR1 201734Z 23018KT 29/15 A3009 RMK A01 T02850151  RH  044%=      5-min Rain = 0
KFR1 201735Z 23017KT 28/15 A3009 RMK A01 T02840151  RH  044%=      5-min Rain = 0
KFR1 201736Z 23017KT 28/15 A3009 RMK A01 T02840152  RH  045%=      5-min Rain = 0
KFR1 201737Z 23018KT 28/15 A3009 RMK A01 T02840151  RH  044%=      5-min Rain = 0
KFR1 201738Z 23016KT 28/15 A3009 RMK A01 T02840152  RH  045%=      5-min Rain = 0
KFR1 201739Z 22016KT 28/15 A3009 RMK A01 T02840153  RH  045%=      5-min Rain = 0
KFR1 201740Z 23017KT 28/15 A3009 RMK A01 T02840154  RH  045%=      5-min Rain = 0
KFR1 201741Z 23014KT 28/15 A3009 RMK A01 T02840154  RH  045%=      5-min Rain = 0
KFR1 201742Z 23014KT 28/16 A3009 RMK A01 T02840156  RH  046%=      5-min Rain = 0
KFR1 201743Z 24011KT 28/16 A3009 RMK A01 T02830157  RH  046%=      5-min Rain = 0
KFR1 201744Z 24015KT 28/16 A3009 RMK A01 T02830157  RH  046%=      5-min Rain = 0
KFR1 201745Z 24014KT 28/16 A3009 RMK A01 T02820157  RH  046%=      5-min Rain = 0
KFR1 201746Z 24016KT 28/16 A3009 RMK A01 T02820156  RH  046%=      5-min Rain = 0
KFR1 201747Z 24016KT 28/16 A3009 RMK A01 T02810158  RH  047%=      5-min Rain = 0
KFR1 201748Z 23015KT 28/16 A3009 RMK A01 T02800158  RH  047%=      5-min Rain = 0
KFR1 201749Z 23015KT 28/16 A3009 RMK A01 T02810155  RH  046%=      5-min Rain = 0
KFR1 201750Z 24012KT 28/16 A3009 RMK A01 T02820157  RH  047%=      5-min Rain = 0
KFR1 201751Z 24013KT 28/16 A3009 RMK A01 T02810159  RH  047%=      5-min Rain = 0
KFR1 201752Z 24011KT 28/16 A3009 RMK A01 T02810159  RH  047%=      5-min Rain = 0
KFR1 201753Z 24011KT 28/16 A3009 RMK A01 T02810157  RH  047%=      5-min Rain = 0
KFR1 201754Z 24011KT 28/16 A3008 RMK A01 T02820157  RH  047%=      5-min Rain = 0
KFR1 201755Z 24012KT 28/16 A3008 RMK A01 T02820156  RH  046%=      5-min Rain = 0
KFR1 201756Z 24012KT 28/16 A3008 RMK A01 T02820157  RH  046%=      5-min Rain = 0
KFR1 201757Z 24011KT 28/16 A3008 RMK A01 T02830156  RH  046%=      5-min Rain = 0
KFR1 201758Z 24012KT 28/16 A3008 RMK A01 T02830157  RH  046%=      5-min Rain = 0
KFR1 201759Z 23012KT 28/16 A3008 RMK A01 T02830157  RH  046%=      5-min Rain = 0
KFR1 201800Z 23012KT 28/16 A3008 RMK A01 T02830157  RH  046%=      5-min Rain = 0
KFR1 201801Z 24012KT 28/16 A3008 RMK A01 T02840156  RH  046%=      5-min Rain = 0
KFR1 201802Z 24013KT 28/16 A3008 RMK A01 T02840156  RH  046%=      5-min Rain = 0
KFR1 201803Z 23013KT 29/16 A3008 RMK A01 T02850156  RH  046%=      5-min Rain = 0
KFR1 201804Z 23011KT 29/16 A3008 RMK A01 T02850157  RH  046%=      5-min Rain = 0
KFR1 201805Z 23011KT 29/16 A3008 RMK A01 T02850156  RH  046%=      5-min Rain = 0
KFR1 201806Z 23010KT 29/16 A3008 RMK A01 T02850159  RH  046%=      5-min Rain = 0
KFR1 201807Z 23010KT 28/16 A3008 RMK A01 T02840158  RH  046%=      5-min Rain = 0
KFR1 201808Z 23010KT 28/16 A3008 RMK A01 T02840158  RH  046%=      5-min Rain = 0
KFR1 201809Z 23009KT 28/16 A3008 RMK A01 T02840157  RH  046%=      5-min Rain = 0
KFR1 201810Z 23009KT 28/16 A3008 RMK A01 T02840157  RH  046%=      5-min Rain = 0
KFR1 201811Z 23009KT 28/16 A3008 RMK A01 T02840156  RH  046%=      5-min Rain = 0
KFR1 201812Z 23008KT 28/16 A3008 RMK A01 T02840157  RH  046%=      5-min Rain = 0
KFR1 201813Z 23008KT 29/16 A3008 RMK A01 T02850158  RH  046%=      5-min Rain = 0
KFR1 201814Z 23007KT 29/16 A3008 RMK A01 T02850157  RH  046%=      5-min Rain = 0
KFR1 201815Z 23008KT 29/16 A3009 RMK A01 T02850158  RH  046%=      5-min Rain = 0
KFR1 201816Z 23007KT 29/16 A3009 RMK A01 T02850156  RH  046%=      5-min Rain = 0
KFR1 201817Z 23008KT 29/16 A3009 RMK A01 T02850158  RH  046%=      5-min Rain = 0
KFR1 201818Z 23008KT 29/16 A3009 RMK A01 T02850157  RH  046%=      5-min Rain = 0
KFR1 201819Z 24008KT 29/16 A3009 RMK A01 T02850157  RH  046%=      5-min Rain = 0
KFR1 201820Z 23007KT 29/16 A3009 RMK A01 T02850156  RH  046%=      5-min Rain = 0
KFR1 201821Z 23008KT 29/16 A3009 RMK A01 T02850157  RH  046%=      5-min Rain = 0
KFR1 201822Z 22008KT 29/16 A3009 RMK A01 T02850158  RH  046%=      5-min Rain = 0
KFR1 201823Z 21010KT 29/16 A3009 RMK A01 T02850158  RH  046%=      5-min Rain = 0
KFR1 201824Z 20008KT 29/16 A3009 RMK A01 T02850159  RH  046%=      5-min Rain = 0
KFR1 201825Z 19008KT 29/16 A3009 RMK A01 T02850161  RH  047%=      5-min Rain = 0
KFR1 201826Z 17008KT 28/17 A301 RMK A01 T02840165  RH  049%=      5-min Rain = 0
KFR1 201827Z 16010KT 28/17 A301 RMK A01 T02820167  RH  050%=      5-min Rain = 0
KFR1 201828Z 16010KT 28/17 A301 RMK A01 T02800169  RH  051%=      5-min Rain = 0
KFR1 201829Z 16012KT 28/17 A301 RMK A01 T02790165  RH  050%=      5-min Rain = 0
KFR1 201830Z 17012KT 28/16 A301 RMK A01 T02790164  RH  050%=      5-min Rain = 0
KFR1 201831Z 16013KT 28/17 A301 RMK A01 T02790165  RH  050%=      5-min Rain = 0
KFR1 201832Z 17014KT 28/16 A301 RMK A01 T02790164  RH  050%=      5-min Rain = 0
KFR1 201833Z 18012KT 28/16 A301 RMK A01 T02790162  RH  049%=      5-min Rain = 0
KFR1 201834Z 19009KT 28/16 A301 RMK A01 T02790162  RH  049%=      5-min Rain = 0
KFR1 201835Z 21009KT 28/16 A301 RMK A01 T02790163  RH  049%=      5-min Rain = 0
KFR1 201836Z 21010KT 28/16 A301 RMK A01 T02780158  RH  048%=      5-min Rain = 0
KFR1 201837Z 21009KT 28/16 A301 RMK A01 T02790158  RH  048%=      5-min Rain = 0
KFR1 201838Z 19008KT 28/16 A301 RMK A01 T02790157  RH  048%=      5-min Rain = 0
KFR1 201839Z 19008KT 28/15 A301 RMK A01 T02780154  RH  047%=      5-min Rain = 0
KFR1 201840Z 18006KT 28/15 A301 RMK A01 T02780150  RH  046%=      5-min Rain = 0
KFR1 201841Z 20008KT 28/15 A3009 RMK A01 T02790146  RH  044%=      5-min Rain = 0
KFR1 201842Z 21008KT 28/14 A3009 RMK A01 T02800137  RH  042%=      5-min Rain = 0
KFR1 201843Z 20007KT 28/14 A3009 RMK A01 T02810138  RH  042%=      5-min Rain = 0
KFR1 201844Z 20006KT 28/14 A3009 RMK A01 T02800143  RH  043%=      5-min Rain = 0
KFR1 201845Z 20006KT 28/14 A3009 RMK A01 T02800141  RH  042%=      5-min Rain = 0
KFR1 201846Z 21008KT 28/14 A3009 RMK A01 T02800136  RH  041%=      5-min Rain = 0
KFR1 201847Z 20010KT 28/13 A3009 RMK A01 T02830130  RH  039%=      5-min Rain = 0
KFR1 201848Z 21008KT 29/14 A3009 RMK A01 T02880138  RH  040%=      5-min Rain = 0
KFR1 201849Z 19009KT 29/14 A3009 RMK A01 T02870139  RH  040%=      5-min Rain = 0
KFR1 201850Z 18008KT 29/14 A3009 RMK A01 T02850141  RH  041%=      5-min Rain = 0
KFR1 201851Z 19009KT 28/14 A3009 RMK A01 T02830141  RH  042%=      5-min Rain = 0
KFR1 201852Z 20009KT 28/14 A3009 RMK A01 T02820142  RH  042%=      5-min Rain = 0
KFR1 201853Z 21010KT 28/14 A3009 RMK A01 T02810142  RH  043%=      5-min Rain = 0
KFR1 201854Z 22013KT 28/14 A3009 RMK A01 T02810135  RH  041%=      5-min Rain = 0
KFR1 201855Z 22014KT 28/13 A3009 RMK A01 T02840128  RH  038%=      5-min Rain = 0
KFR1 201856Z 21013KT 29/13 A3009 RMK A01 T02880126  RH  037%=      5-min Rain = 0
KFR1 201857Z 21014KT 29/13 A3009 RMK A01 T02890129  RH  037%=      5-min Rain = 0
KFR1 201858Z 22013KT 29/13 A3009 RMK A01 T02890131  RH  038%=      5-min Rain = 0
KFR1 201859Z 21014KT 29/14 A3009 RMK A01 T02880135  RH  039%=      5-min Rain = 0
KFR1 201900Z 21014KT 29/14 A3009 RMK A01 T02880135  RH  039%=      5-min Rain = 0
KFR1 201901Z 21012KT 29/14 A3009 RMK A01 T02870137  RH  040%=      5-min Rain = 0
KFR1 201902Z 20011KT 29/14 A3009 RMK A01 T02850142  RH  041%=      5-min Rain = 0
KFR1 201903Z 20010KT 28/15 A3009 RMK A01 T02830147  RH  043%=      5-min Rain = 0
KFR1 201904Z 20011KT 28/15 A3009 RMK A01 T02790147  RH  044%=      5-min Rain = 0
KFR1 201905Z 21013KT 28/14 A3009 RMK A01 T02780137  RH  042%=      5-min Rain = 0
KFR1 201906Z 21010KT 28/14 A3009 RMK A01 T02800141  RH  042%=      5-min Rain = 0
KFR1 201907Z 20011KT 28/14 A3009 RMK A01 T02800142  RH  043%=      5-min Rain = 0
KFR1 201908Z 21013KT 28/14 A3009 RMK A01 T02810138  RH  041%=      5-min Rain = 0
KFR1 201909Z 21012KT 28/14 A3008 RMK A01 T02820141  RH  042%=      5-min Rain = 0
KFR1 201910Z 21012KT 28/14 A3009 RMK A01 T02820142  RH  042%=      5-min Rain = 0
KFR1 201911Z 21013KT 28/14 A3009 RMK A01 T02820142  RH  042%=      5-min Rain = 0
KFR1 201912Z 21013KT 28/13 A3008 RMK A01 T02830134  RH  040%=      5-min Rain = 0
KFR1 201913Z 21014KT 29/13 A3009 RMK A01 T02860134  RH  039%=      5-min Rain = 0
KFR1 201914Z 22013KT 29/12 A3009 RMK A01 T02890121  RH  035%=      5-min Rain = 0
KFR1 201915Z 21012KT 30/12 A3008 RMK A01 T02960118  RH  033%=      5-min Rain = 0
KFR1 201916Z 21012KT 30/12 A3009 RMK A01 T02990124  RH  034%=      5-min Rain = 0
KFR1 201917Z 20011KT 30/13 A3009 RMK A01 T02990126  RH  035%=      5-min Rain = 0
KFR1 201918Z 21011KT 30/13 A3009 RMK A01 T02970134  RH  037%=      5-min Rain = 0
KFR1 201919Z 21011KT 30/13 A3008 RMK A01 T02950132  RH  037%=      5-min Rain = 0
KFR1 201920Z 21009KT 30/13 A3008 RMK A01 T02950132  RH  037%=      5-min Rain = 0
KFR1 201921Z 23007KT 30/13 A3009 RMK A01 T02950133  RH  037%=      5-min Rain = 0
KFR1 201922Z 25008KT 29/15 A3009 RMK A01 T02940150  RH  042%=      5-min Rain = 0
KFR1 201923Z 23006KT 29/15 A3009 RMK A01 T02870151  RH  044%=      5-min Rain = 0
KFR1 201924Z 23005KT 28/15 A3008 RMK A01 T02830152  RH  045%=      5-min Rain = 0
KFR1 201925Z 23004KT 28/15 A3008 RMK A01 T02810154  RH  046%=      5-min Rain = 0
KFR1 201926Z 23005KT 28/15 A3008 RMK A01 T02790154  RH  046%=      5-min Rain = 0
KFR1 201927Z 24004KT 28/16 A3008 RMK A01 T02790156  RH  047%=      5-min Rain = 0
KFR1 201928Z 24005KT 28/15 A3008 RMK A01 T02790153  RH  046%=      5-min Rain = 0
KFR1 201929Z 24005KT 28/15 A3008 RMK A01 T02790149  RH  045%=      5-min Rain = 0
KFR1 201930Z 23007KT 28/15 A3008 RMK A01 T02800149  RH  045%=      5-min Rain = 0
KFR1 201931Z 21007KT 28/15 A3008 RMK A01 T02800150  RH  045%=      5-min Rain = 0
KFR1 201932Z 21009KT 28/15 A3008 RMK A01 T02800153  RH  046%=      5-min Rain = 0
KFR1 201933Z 20008KT 28/15 A3008 RMK A01 T02780152  RH  046%=      5-min Rain = 0
KFR1 201934Z 19007KT 28/16 A3008 RMK A01 T02770158  RH  048%=      5-min Rain = 0
KFR1 201935Z 20008KT 28/16 A3008 RMK A01 T02760159  RH  049%=      5-min Rain = 0
KFR1 201936Z 20008KT 28/16 A3008 RMK A01 T02760161  RH  050%=      5-min Rain = 0
KFR1 201937Z 21008KT 28/16 A3008 RMK A01 T02760161  RH  049%=      5-min Rain = 0
KFR1 201938Z 21009KT 28/16 A3008 RMK A01 T02770155  RH  047%=      5-min Rain = 0
KFR1 201939Z 21008KT 28/16 A3008 RMK A01 T02780157  RH  047%=      5-min Rain = 0
KFR1 201940Z 21008KT 28/16 A3008 RMK A01 T02790158  RH  048%=      5-min Rain = 0
KFR1 201941Z 22009KT 28/15 A3007 RMK A01 T02800153  RH  046%=      5-min Rain = 0
KFR1 201942Z 22012KT 28/14 A3007 RMK A01 T02840140  RH  041%=      5-min Rain = 0
KFR1 201943Z 22012KT 29/14 A3007 RMK A01 T02880138  RH  040%=      5-min Rain = 0
KFR1 201944Z 22011KT 29/14 A3007 RMK A01 T02910137  RH  039%=      5-min Rain = 0
KFR1 201945Z 22011KT 29/14 A3007 RMK A01 T02940136  RH  038%=      5-min Rain = 0
KFR1 201946Z 21011KT 30/14 A3007 RMK A01 T02950138  RH  038%=      5-min Rain = 0
KFR1 201947Z 20009KT 30/14 A3008 RMK A01 T02950140  RH  039%=      5-min Rain = 0
KFR1 201948Z 20010KT 29/15 A3008 RMK A01 T02940149  RH  041%=      5-min Rain = 0
KFR1 201949Z 19009KT 29/15 A3008 RMK A01 T02910150  RH  042%=      5-min Rain = 0
KFR1 201950Z 19009KT 29/15 A3008 RMK A01 T02890153  RH  044%=      5-min Rain = 0
KFR1 201951Z 20009KT 29/16 A3008 RMK A01 T02870155  RH  045%=      5-min Rain = 0
KFR1 201952Z 19010KT 29/15 A3008 RMK A01 T02850152  RH  044%=      5-min Rain = 0
KFR1 201953Z 18010KT 29/15 A3008 RMK A01 T02850153  RH  045%=      5-min Rain = 0
KFR1 201954Z 19009KT 29/15 A3008 RMK A01 T02850154  RH  045%=      5-min Rain = 0
KFR1 201955Z 20010KT 29/15 A3008 RMK A01 T02850151  RH  044%=      5-min Rain = 0
KFR1 201956Z 20010KT 29/15 A3008 RMK A01 T02860151  RH  044%=      5-min Rain = 0
KFR1 201957Z 19009KT 29/15 A3008 RMK A01 T02870154  RH  045%=      5-min Rain = 0
KFR1 201958Z 19008KT 29/16 A3008 RMK A01 T02860156  RH  045%=      5-min Rain = 0
KFR1 201959Z 19008KT 29/16 A3008 RMK A01 T02860155  RH  045%=      5-min Rain = 0
KFR1 202000Z 19008KT 29/15 A3008 RMK A01 T02860153  RH  044%=      5-min Rain = 0
KFR1 202001Z 18008KT 29/15 A3008 RMK A01 T02870154  RH  045%=      5-min Rain = 0
KFR1 202002Z 19008KT 29/15 A3008 RMK A01 T02870151  RH  044%=      5-min Rain = 0
KFR1 202003Z 19008KT 29/15 A3008 RMK A01 T02890147  RH  042%=      5-min Rain = 0
KFR1 202004Z 19008KT 29/15 A3008 RMK A01 T02900148  RH  042%=      5-min Rain = 0
KFR1 202005Z 19008KT 29/15 A3008 RMK A01 T02910148  RH  042%=      5-min Rain = 0
KFR1 202006Z 19010KT 29/15 A3008 RMK A01 T02920149  RH  042%=      5-min Rain = 0
KFR1 202007Z 19009KT 29/15 A3008 RMK A01 T02930150  RH  042%=      5-min Rain = 0
KFR1 202008Z 19009KT 29/15 A3008 RMK A01 T02930149  RH  042%=      5-min Rain = 0
KFR1 202009Z 19009KT 29/15 A3008 RMK A01 T02940150  RH  041%=      5-min Rain = 0
KFR1 202010Z 18009KT 30/15 A3008 RMK A01 T02950149  RH  041%=      5-min Rain = 0
KFR1 202011Z 18008KT 30/15 A3008 RMK A01 T02950149  RH  041%=      5-min Rain = 0
KFR1 202012Z 18008KT 30/15 A3008 RMK A01 T02950152  RH  042%=      5-min Rain = 0
KFR1 202013Z 18008KT 30/15 A3008 RMK A01 T02950152  RH  042%=      5-min Rain = 0
KFR1 202014Z 19007KT 30/15 A3008 RMK A01 T02950151  RH  042%=      5-min Rain = 0
KFR1 202015Z 18007KT 30/15 A3008 RMK A01 T02950154  RH  042%=      5-min Rain = 0
KFR1 202016Z 17008KT 30/15 A3007 RMK A01 T02950153  RH  042%=      5-min Rain = 0
KFR1 202017Z 18008KT 30/16 A3007 RMK A01 T02950155  RH  043%=      5-min Rain = 0
KFR1 202018Z 18009KT 30/16 A3007 RMK A01 T02950156  RH  043%=      5-min Rain = 0
KFR1 202019Z 18008KT 30/16 A3007 RMK A01 T02950156  RH  043%=      5-min Rain = 0
KFR1 202020Z 18009KT 30/16 A3007 RMK A01 T02960156  RH  043%=      5-min Rain = 0
KFR1 202021Z 19008KT 30/16 A3007 RMK A01 T02970158  RH  043%=      5-min Rain = 0
KFR1 202022Z 19007KT 30/16 A3007 RMK A01 T02970157  RH  043%=      5-min Rain = 0
KFR1 202023Z 19007KT 30/16 A3007 RMK A01 T02980159  RH  043%=      5-min Rain = 0
KFR1 202024Z 19007KT 30/16 A3007 RMK A01 T02980160  RH  043%=      5-min Rain = 0
KFR1 202025Z 19007KT 30/16 A3007 RMK A01 T02980160  RH  043%=      5-min Rain = 0
KFR1 202026Z 20007KT 30/16 A3007 RMK A01 T02990160  RH  043%=      5-min Rain = 0
KFR1 202027Z 20008KT 30/16 A3007 RMK A01 T02990161  RH  043%=      5-min Rain = 0
KFR1 202028Z 20009KT 30/16 A3007 RMK A01 T02990163  RH  044%=      5-min Rain = 0
KFR1 202029Z 20009KT 30/16 A3007 RMK A01 T03000163  RH  044%=      5-min Rain = 0
KFR1 202030Z 21009KT 30/16 A3007 RMK A01 T03010162  RH  043%=      5-min Rain = 0
KFR1 202031Z 20009KT 30/16 A3007 RMK A01 T03040162  RH  043%=      5-min Rain = 0
KFR1 202032Z 20009KT 31/16 A3007 RMK A01 T03060162  RH  042%=      5-min Rain = 0
KFR1 202033Z 20008KT 31/16 A3007 RMK A01 T03080161  RH  041%=      5-min Rain = 0
KFR1 202034Z 21007KT 31/16 A3006 RMK A01 T03090160  RH  041%=      5-min Rain = 0
KFR1 202035Z 20007KT 31/16 A3006 RMK A01 T03100160  RH  040%=      5-min Rain = 0
KFR1 202036Z 20007KT 31/16 A3006 RMK A01 T03110163  RH  041%=      5-min Rain = 0
KFR1 202037Z 20007KT 31/16 A3006 RMK A01 T03110164  RH  041%=      5-min Rain = 0
KFR1 202038Z 20007KT 31/16 A3006 RMK A01 T03110161  RH  040%=      5-min Rain = 0
KFR1 202039Z 20007KT 31/16 A3006 RMK A01 T03120163  RH  041%=      5-min Rain = 0
KFR1 202040Z 20006KT 31/16 A3006 RMK A01 T03130162  RH  040%=      5-min Rain = 0
KFR1 202041Z 20007KT 31/16 A3006 RMK A01 T03140159  RH  039%=      5-min Rain = 0
KFR1 202042Z 20007KT 31/16 A3006 RMK A01 T03140160  RH  039%=      5-min Rain = 0
KFR1 202043Z 20007KT 32/16 A3006 RMK A01 T03150162  RH  040%=      5-min Rain = 0
KFR1 202044Z 20007KT 32/16 A3006 RMK A01 T03160160  RH  039%=      5-min Rain = 0
KFR1 202045Z 21008KT 32/16 A3006 RMK A01 T03170157  RH  038%=      5-min Rain = 0
KFR1 202046Z 21008KT 32/15 A3006 RMK A01 T03190154  RH  037%=      5-min Rain = 0
KFR1 202047Z 20008KT 32/16 A3006 RMK A01 T03210155  RH  037%=      5-min Rain = 0
KFR1 202048Z 20007KT 32/16 A3006 RMK A01 T03230155  RH  036%=      5-min Rain = 0
KFR1 202049Z 21007KT 32/15 A3005 RMK A01 T03240154  RH  036%=      5-min Rain = 0
KFR1 202050Z 20006KT 33/16 A3006 RMK A01 T03260155  RH  036%=      5-min Rain = 0
KFR1 202051Z 20005KT 33/16 A3006 RMK A01 T03280157  RH  036%=      5-min Rain = 0
KFR1 202052Z 21004KT 33/16 A3006 RMK A01 T03290157  RH  036%=      5-min Rain = 0
KFR1 202053Z 20006KT 33/15 A3005 RMK A01 T03300154  RH  035%=      5-min Rain = 0
KFR1 202054Z 19006KT 33/15 A3005 RMK A01 T03310145  RH  033%=      5-min Rain = 0
KFR1 202055Z 19006KT 33/14 A3005 RMK A01 T03320142  RH  032%=      5-min Rain = 0
KFR1 202056Z 19005KT 33/15 A3005 RMK A01 T03330145  RH  032%=      5-min Rain = 0
KFR1 202057Z 18005KT 33/14 A3005 RMK A01 T03340144  RH  032%=      5-min Rain = 0
KFR1 202058Z 18003KT 34/15 A3005 RMK A01 T03350148  RH  032%=      5-min Rain = 0
KFR1 202059Z 19004KT 34/14 A3005 RMK A01 T03360141  RH  031%=      5-min Rain = 0
KFR1 202100Z 16003KT 34/15 A3005 RMK A01 T03370145  RH  032%=      5-min Rain = 0
KFR1 202101Z 15004KT 34/14 A3005 RMK A01 T03380144  RH  031%=      5-min Rain = 0
KFR1 202102Z 15003KT 34/15 A3005 RMK A01 T03380147  RH  032%=      5-min Rain = 0
KFR1 202103Z 12004KT 34/16 A3005 RMK A01 T03380160  RH  035%=      5-min Rain = 0
KFR1 202104Z 13005KT 33/16 A3005 RMK A01 T03340163  RH  036%=      5-min Rain = 0
KFR1 202105Z 13003KT 33/16 A3005 RMK A01 T03280164  RH  038%=      5-min Rain = 0
KFR1 202106Z 15002KT 33/16 A3005 RMK A01 T03250164  RH  038%=      5-min Rain = 0
KFR1 202107Z 16002KT 33/17 A3005 RMK A01 T03250165  RH  038%=      5-min Rain = 0
KFR1 202108Z 16002KT 33/17 A3005 RMK A01 T03260169  RH  039%=      5-min Rain = 0
KFR1 202109Z 16002KT 33/17 A3005 RMK A01 T03280168  RH  038%=      5-min Rain = 0
KFR1 202110Z 13002KT 33/16 A3005 RMK A01 T03290162  RH  037%=      5-min Rain = 0
KFR1 202111Z 14004KT 33/15 A3005 RMK A01 T03320150  RH  034%=      5-min Rain = 0
KFR1 202112Z 14004KT 34/15 A3005 RMK A01 T03360150  RH  033%=      5-min Rain = 0
KFR1 202113Z 16002KT 34/15 A3005 RMK A01 T03390153  RH  033%=      5-min Rain = 0
KFR1 202114Z 10004KT 34/17 A3004 RMK A01 T03420165  RH  035%=      5-min Rain = 0
KFR1 202115Z 10005KT 34/17 A3004 RMK A01 T03420171  RH  036%=      5-min Rain = 0
KFR1 202116Z 10006KT 34/17 A3004 RMK A01 T03400165  RH  035%=      5-min Rain = 0
KFR1 202117Z 10006KT 34/16 A3004 RMK A01 T03410159  RH  034%=      5-min Rain = 0
KFR1 202118Z 10006KT 34/16 A3004 RMK A01 T03390159  RH  034%=      5-min Rain = 0
KFR1 202119Z 11006KT 34/16 A3004 RMK A01 T03380159  RH  034%=      5-min Rain = 0
KFR1 202120Z 11005KT 34/15 A3004 RMK A01 T03380154  RH  033%=      5-min Rain = 0
KFR1 202121Z 10004KT 34/15 A3004 RMK A01 T03370152  RH  033%=      5-min Rain = 0
KFR1 202122Z 10005KT 34/15 A3004 RMK A01 T03380154  RH  033%=      5-min Rain = 0
KFR1 202123Z 12004KT 34/15 A3004 RMK A01 T03400150  RH  032%=      5-min Rain = 0
KFR1 202124Z 11004KT 34/15 A3004 RMK A01 T03420154  RH  033%=      5-min Rain = 0
KFR1 202125Z 11005KT 34/16 A3004 RMK A01 T03430155  RH  032%=      5-min Rain = 0
KFR1 202126Z 11005KT 34/15 A3004 RMK A01 T03430148  RH  031%=      5-min Rain = 0
KFR1 202127Z 11005KT 34/15 A3004 RMK A01 T03420147  RH  031%=      5-min Rain = 0
KFR1 202128Z 12004KT 34/15 A3004 RMK A01 T03410145  RH  031%=      5-min Rain = 0
KFR1 202129Z 13004KT 34/15 A3003 RMK A01 T03410152  RH  032%=      5-min Rain = 0
KFR1 202130Z 15003KT 34/15 A3003 RMK A01 T03440150  RH  031%=      5-min Rain = 0
KFR1 202131Z 12003KT 35/15 A3003 RMK A01 T03470147  RH  030%=      5-min Rain = 0
KFR1 202132Z 14004KT 35/14 A3003 RMK A01 T03490140  RH  029%=      5-min Rain = 0
KFR1 202133Z 14003KT 35/14 A3003 RMK A01 T03490138  RH  028%=      5-min Rain = 0
KFR1 202134Z 09003KT 35/14 A3003 RMK A01 T03490138  RH  028%=      5-min Rain = 0
KFR1 202135Z 17003KT 35/14 A3003 RMK A01 T03500139  RH  028%=      5-min Rain = 0
KFR1 202136Z 12003KT 35/14 A3003 RMK A01 T03500136  RH  028%=      5-min Rain = 0
KFR1 202137Z 12003KT 35/14 A3003 RMK A01 T03500136  RH  028%=      5-min Rain = 0
KFR1 202138Z 11005KT 35/14 A3003 RMK A01 T03500136  RH  028%=      5-min Rain = 0
KFR1 202139Z 10003KT 35/14 A3003 RMK A01 T03500140  RH  028%=      5-min Rain = 0
KFR1 202140Z 18002KT 35/14 A3003 RMK A01 T03500140  RH  028%=      5-min Rain = 0
KFR1 202141Z 13001KT 35/14 A3003 RMK A01 T03510143  RH  029%=      5-min Rain = 0
KFR1 202142Z 18005KT 35/15 A3003 RMK A01 T03540145  RH  029%=      5-min Rain = 0
KFR1 202143Z 21004KT 36/14 A3003 RMK A01 T03550142  RH  028%=      5-min Rain = 0
KFR1 202144Z 19001KT 36/14 A3003 RMK A01 T03550144  RH  028%=      5-min Rain = 0
KFR1 202145Z 18002KT 35/15 A3003 RMK A01 T03540145  RH  029%=      5-min Rain = 0
KFR1 202146Z 11003KT 35/14 A3002 RMK A01 T03530144  RH  029%=      5-min Rain = 0
KFR1 202147Z 12003KT 35/14 A3002 RMK A01 T03530142  RH  028%=      5-min Rain = 0
KFR1 202148Z 16003KT 35/14 A3002 RMK A01 T03510143  RH  029%=      5-min Rain = 0
KFR1 202149Z 20003G9KT 35/14 A3002 RMK A01 T03520144  RH  029%=      5-min Rain = 0
KFR1 202150Z 15008KT 35/14 A3002 RMK A01 T03530144  RH  029%=      5-min Rain = 0
KFR1 202151Z 15006KT 35/14 A3002 RMK A01 T03540137  RH  027%=      5-min Rain = 0
KFR1 202152Z 18007KT 36/14 A3002 RMK A01 T03550138  RH  027%=      5-min Rain = 0
KFR1 202153Z 17009KT 36/14 A3002 RMK A01 T03570136  RH  027%=      5-min Rain = 0
KFR1 202154Z 16008KT 36/14 A3002 RMK A01 T03570137  RH  027%=      5-min Rain = 0
KFR1 202155Z 16010KT 36/14 A3002 RMK A01 T03570138  RH  027%=      5-min Rain = 0
KFR1 202156Z 16008KT 36/14 A3002 RMK A01 T03580136  RH  027%=      5-min Rain = 0
KFR1 202157Z 16007KT 36/14 A3002 RMK A01 T03570137  RH  027%=      5-min Rain = 0
KFR1 202158Z 16007KT 36/14 A3002 RMK A01 T03590140  RH  027%=      5-min Rain = 0
KFR1 202159Z 17007KT 36/14 A3002 RMK A01 T03610140  RH  027%=      5-min Rain = 0
KFR1 202200Z 17009KT 36/14 A3002 RMK A01 T03610138  RH  026%=      5-min Rain = 0
KFR1 202201Z 17009KT 36/14 A3002 RMK A01 T03600138  RH  026%=      5-min Rain = 0
KFR1 202202Z 18008KT 36/14 A3002 RMK A01 T03600135  RH  026%=      5-min Rain = 0
KFR1 202203Z 19009KT 36/14 A3002 RMK A01 T03580136  RH  026%=      5-min Rain = 0
KFR1 202204Z 20007KT 36/13 A3002 RMK A01 T03570133  RH  026%=      5-min Rain = 0
KFR1 202205Z 19004KT 36/13 A3002 RMK A01 T03560134  RH  026%=      5-min Rain = 0
KFR1 202206Z 17006KT 36/14 A3002 RMK A01 T03570137  RH  027%=      5-min Rain = 0
KFR1 202207Z 16005KT 36/14 A3002 RMK A01 T03590142  RH  027%=      5-min Rain = 0
KFR1 202208Z 18004KT 36/15 A3002 RMK A01 T03620148  RH  028%=      5-min Rain = 0
KFR1 202209Z 20007KT 37/15 A3002 RMK A01 T03650149  RH  028%=      5-min Rain = 0
KFR1 202210Z 19007KT 36/15 A3002 RMK A01 T03640151  RH  028%=      5-min Rain = 0
KFR1 202211Z 20009KT 36/15 A3002 RMK A01 T03630152  RH  029%=      5-min Rain = 0
KFR1 202212Z 20010KT 36/15 A3002 RMK A01 T03630151  RH  028%=      5-min Rain = 0
KFR1 202213Z 19010KT 36/15 A3002 RMK A01 T03620148  RH  028%=      5-min Rain = 0
KFR1 202214Z 19012KT 36/15 A3002 RMK A01 T03610146  RH  028%=      5-min Rain = 0
KFR1 202215Z 19009KT 36/14 A3002 RMK A01 T03600144  RH  028%=      5-min Rain = 0
KFR1 202216Z 20008KT 36/15 A3002 RMK A01 T03610149  RH  028%=      5-min Rain = 0
KFR1 202217Z 20010KT 36/15 A3002 RMK A01 T03630150  RH  028%=      5-min Rain = 0
KFR1 202218Z 20009KT 36/15 A3002 RMK A01 T03630150  RH  028%=      5-min Rain = 0
KFR1 202219Z 20006KT 36/15 A3002 RMK A01 T03630149  RH  028%=      5-min Rain = 0
KFR1 202220Z 19009KT 36/15 A3002 RMK A01 T03640149  RH  028%=      5-min Rain = 0
KFR1 202221Z 18011KT 36/15 A3002 RMK A01 T03640146  RH  027%=      5-min Rain = 0
KFR1 202222Z 18009KT 36/14 A3002 RMK A01 T03630144  RH  027%=      5-min Rain = 0
KFR1 202223Z 18010KT 36/14 A3002 RMK A01 T03630141  RH  027%=      5-min Rain = 0
KFR1 202224Z 18011KT 36/14 A3002 RMK A01 T03620141  RH  027%=      5-min Rain = 0
KFR1 202225Z 19010KT 36/14 A3002 RMK A01 T03610142  RH  027%=      5-min Rain = 0
KFR1 202226Z 19009KT 36/14 A3002 RMK A01 T03620143  RH  027%=      5-min Rain = 0
KFR1 202227Z 19008KT 36/15 A3002 RMK A01 T03620145  RH  027%=      5-min Rain = 0
KFR1 202228Z 19011KT 36/14 A3002 RMK A01 T03640142  RH  027%=      5-min Rain = 0
KFR1 202229Z 19013KT 36/14 A3002 RMK A01 T03640144  RH  027%=      5-min Rain = 0
KFR1 202230Z 19010G15KT 36/14 A3002 RMK A01 T03630141  RH  027%=      5-min Rain = 0
KFR1 202231Z 20009KT 36/14 A3002 RMK A01 T03610142  RH  027%=      5-min Rain = 0
KFR1 202232Z 20011KT 36/14 A3002 RMK A01 T03620142  RH  027%=      5-min Rain = 0
KFR1 202233Z 20011KT 36/14 A3001 RMK A01 T03630142  RH  027%=      5-min Rain = 0
KFR1 202234Z 21009KT 36/14 A3001 RMK A01 T03630139  RH  026%=      5-min Rain = 0
KFR1 202235Z 18011KT 36/14 A3002 RMK A01 T03640144  RH  027%=      5-min Rain = 0
KFR1 202236Z 17011KT 37/14 A3002 RMK A01 T03660138  RH  026%=      5-min Rain = 0
KFR1 202237Z 16010KT 37/14 A3002 RMK A01 T03660139  RH  026%=      5-min Rain = 0
KFR1 202238Z 16011KT 37/14 A3002 RMK A01 T03650138  RH  026%=      5-min Rain = 0
KFR1 202239Z 17010KT 36/14 A3001 RMK A01 T03640141  RH  026%=      5-min Rain = 0
KFR1 202240Z 18011KT 37/14 A3001 RMK A01 T03660139  RH  026%=      5-min Rain = 0
KFR1 202241Z 18008KT 37/14 A3001 RMK A01 T03650141  RH  026%=      5-min Rain = 0
KFR1 202242Z 19010KT 37/14 A3001 RMK A01 T03660142  RH  026%=      5-min Rain = 0
KFR1 202243Z 20012KT 36/14 A3001 RMK A01 T03640141  RH  026%=      5-min Rain = 0
KFR1 202244Z 19009KT 36/14 A3001 RMK A01 T03600139  RH  027%=      5-min Rain = 0
KFR1 202245Z 17013KT 36/14 A3001 RMK A01 T03590139  RH  027%=      5-min Rain = 0
KFR1 202246Z 16012KT 36/14 A3001 RMK A01 T03590138  RH  027%=      5-min Rain = 0
KFR1 202247Z 17011KT 36/14 A3001 RMK A01 T03610140  RH  027%=      5-min Rain = 0
KFR1 202248Z 17009KT 36/14 A3001 RMK A01 T03630138  RH  026%=      5-min Rain = 0
KFR1 202249Z 16007KT 36/14 A3001 RMK A01 T03630137  RH  026%=      5-min Rain = 0
KFR1 202250Z 17009G14KT 36/14 A3001 RMK A01 T03630141  RH  027%=      5-min Rain = 0
KFR1 202251Z 19014KT 37/14 A3001 RMK A01 T03650142  RH  027%=      5-min Rain = 0
KFR1 202252Z 19013KT 37/14 A3001 RMK A01 T03650144  RH  027%=      5-min Rain = 0
KFR1 202253Z 19015KT 37/14 A3001 RMK A01 T03660142  RH  026%=      5-min Rain = 0
KFR1 202254Z 19014KT 37/14 A3001 RMK A01 T03650143  RH  027%=      5-min Rain = 0
KFR1 202255Z 18011KT 37/14 A3001 RMK A01 T03650144  RH  027%=      5-min Rain = 0
KFR1 202256Z 18011KT 37/15 A3001 RMK A01 T03650145  RH  027%=      5-min Rain = 0
KFR1 202257Z 18009KT 37/15 A3001 RMK A01 T03670146  RH  027%=      5-min Rain = 0
KFR1 202258Z 16008G13KT 37/15 A3002 RMK A01 T03680150  RH  027%=      5-min Rain = 0
KFR1 202259Z 16008KT 37/15 A3002 RMK A01 T03700149  RH  027%=      5-min Rain = 0
KFR1 202300Z 15010KT 37/14 A3002 RMK A01 T03700141  RH  026%=      5-min Rain = 0
KFR1 202301Z 16011KT 37/13 A3002 RMK A01 T03680129  RH  024%=      5-min Rain = 0
KFR1 202302Z 16012KT 36/13 A3002 RMK A01 T03640131  RH  025%=      5-min Rain = 0
KFR1 202303Z 16014KT 36/13 A3001 RMK A01 T03620128  RH  025%=      5-min Rain = 0
KFR1 202304Z 16010KT 36/13 A3002 RMK A01 T03590131  RH  025%=      5-min Rain = 0
KFR1 202305Z 15011G17KT 36/13 A3002 RMK A01 T03560132  RH  026%=      5-min Rain = 0
KFR1 202306Z 16015KT 35/13 A3002 RMK A01 T03530129  RH  026%=      5-min Rain = 0
KFR1 202307Z 16013KT 35/13 A3002 RMK A01 T03520127  RH  026%=      5-min Rain = 0
KFR1 202308Z 16015KT 35/13 A3002 RMK A01 T03500126  RH  026%=      5-min Rain = 0
KFR1 202309Z 16016KT 35/13 A3002 RMK A01 T03510125  RH  026%=      5-min Rain = 0
KFR1 202310Z 16012KT 35/13 A3002 RMK A01 T03530125  RH  025%=      5-min Rain = 0
KFR1 202311Z 17014KT 35/13 A3002 RMK A01 T03540128  RH  026%=      5-min Rain = 0
KFR1 202312Z 17015KT 36/13 A3001 RMK A01 T03560127  RH  025%=      5-min Rain = 0
KFR1 202313Z 16014KT 36/13 A3002 RMK A01 T03560130  RH  026%=      5-min Rain = 0
KFR1 202314Z 17011KT 36/13 A3002 RMK A01 T03560131  RH  026%=      5-min Rain = 0
KFR1 202315Z 16009KT 36/14 A3002 RMK A01 T03560135  RH  027%=      5-min Rain = 0
KFR1 202316Z 16011KT 36/13 A3002 RMK A01 T03570133  RH  026%=      5-min Rain = 0
KFR1 202317Z 15009G15KT 36/14 A3002 RMK A01 T03560136  RH  027%=      5-min Rain = 0
KFR1 202318Z 15009KT 36/14 A3002 RMK A01 T03560138  RH  027%=      5-min Rain = 0
KFR1 202319Z 15010G16KT 36/14 A3002 RMK A01 T03570138  RH  027%=      5-min Rain = 0
KFR1 202320Z 15008G14KT 36/14 A3002 RMK A01 T03550137  RH  027%=      5-min Rain = 0
KFR1 202321Z 13007KT 36/14 A3002 RMK A01 T03550138  RH  027%=      5-min Rain = 0
KFR1 202322Z 15007G12KT 36/14 A3002 RMK A01 T03550137  RH  027%=      5-min Rain = 0
KFR1 202323Z 15009KT 36/13 A3002 RMK A01 T03550133  RH  027%=      5-min Rain = 0
KFR1 202324Z 15009G15KT 36/13 A3002 RMK A01 T03550129  RH  026%=      5-min Rain = 0
KFR1 202325Z 16010KT 36/13 A3002 RMK A01 T03550131  RH  026%=      5-min Rain = 0
KFR1 202326Z 17013KT 36/13 A3002 RMK A01 T03560129  RH  026%=      5-min Rain = 0
KFR1 202327Z 17012KT 36/12 A3002 RMK A01 T03560124  RH  025%=      5-min Rain = 0
KFR1 202328Z 16012KT 36/12 A3002 RMK A01 T03550123  RH  025%=      5-min Rain = 0
KFR1 202329Z 15008KT 36/12 A3002 RMK A01 T03550123  RH  025%=      5-min Rain = 0
KFR1 202330Z 16009KT 36/13 A3002 RMK A01 T03550125  RH  025%=      5-min Rain = 0
KFR1 202331Z 16012KT 36/12 A3002 RMK A01 T03550123  RH  025%=      5-min Rain = 0
KFR1 202332Z 16009KT 36/12 A3002 RMK A01 T03550123  RH  025%=      5-min Rain = 0
KFR1 202333Z 16010G15KT 36/12 A3002 RMK A01 T03560121  RH  024%=      5-min Rain = 0
KFR1 202334Z 16010G15KT 36/12 A3002 RMK A01 T03560120  RH  024%=      5-min Rain = 0
KFR1 202335Z 16010KT 36/12 A3002 RMK A01 T03560121  RH  024%=      5-min Rain = 0
KFR1 202336Z 16006KT 36/12 A3002 RMK A01 T03560123  RH  025%=      5-min Rain = 0
KFR1 202337Z 16006KT 36/13 A3002 RMK A01 T03560127  RH  025%=      5-min Rain = 0
KFR1 202338Z 15007KT 36/13 A3002 RMK A01 T03570127  RH  025%=      5-min Rain = 0
KFR1 202339Z 16009KT 36/13 A3002 RMK A01 T03570125  RH  025%=      5-min Rain = 0
KFR1 202340Z 16008KT 36/13 A3002 RMK A01 T03570126  RH  025%=      5-min Rain = 0
KFR1 202341Z 16006KT 36/13 A3002 RMK A01 T03560128  RH  025%=      5-min Rain = 0
KFR1 202342Z 15006KT 36/13 A3002 RMK A01 T03570128  RH  025%=      5-min Rain = 0
KFR1 202343Z 16006KT 36/13 A3002 RMK A01 T03570127  RH  025%=      5-min Rain = 0
KFR1 202344Z 17009KT 36/13 A3002 RMK A01 T03570126  RH  025%=      5-min Rain = 0
KFR1 202345Z 17014KT 36/12 A3002 RMK A01 T03570119  RH  024%=      5-min Rain = 0
KFR1 202346Z 17011KT 36/12 A3002 RMK A01 T03570115  RH  023%=      5-min Rain = 0
KFR1 202347Z 17010KT 36/12 A3002 RMK A01 T03570116  RH  023%=      5-min Rain = 0
KFR1 202348Z 17010KT 36/12 A3002 RMK A01 T03570116  RH  023%=      5-min Rain = 0
KFR1 202349Z 16012KT 36/12 A3002 RMK A01 T03570116  RH  023%=      5-min Rain = 0
KFR1 202350Z 16012KT 36/12 A3002 RMK A01 T03570116  RH  023%=      5-min Rain = 0
KFR1 202351Z 16012KT 36/12 A3002 RMK A01 T03570115  RH  023%=      5-min Rain = 0
KFR1 202352Z 17012KT 36/11 A3002 RMK A01 T03560113  RH  023%=      5-min Rain = 0
KFR1 202353Z 17009G14KT 36/11 A3002 RMK A01 T03560113  RH  023%=      5-min Rain = 0
KFR1 202354Z 16011KT 36/12 A3002 RMK A01 T03560115  RH  023%=      5-min Rain = 0
KFR1 202355Z 17009KT 36/11 A3002 RMK A01 T03560113  RH  023%=      5-min Rain = 0
KFR1 202356Z 16011KT 36/11 A3002 RMK A01 T03560114  RH  023%=      5-min Rain = 0
KFR1 202357Z 16010KT 36/11 A3002 RMK A01 T03560113  RH  023%=      5-min Rain = 0
KFR1 202358Z 16011KT 36/11 A3002 RMK A01 T03560112  RH  023%=      5-min Rain = 0
KFR1 202359Z 16009KT 36/11 A3002 RMK A01 T03560114  RH  023%=      5-min Rain = 0
KFR1 210000Z 17009KT 36/12 A3002 RMK A01 T03560115  RH  023%=      5-min Rain = 0
KFR1 210001Z 16010KT 36/11 A3002 RMK A01 T03560113  RH  023%=      5-min Rain = 0
KFR1 210002Z 17010KT 36/11 A3002 RMK A01 T03560113  RH  023%=      5-min Rain = 0
KFR1 210003Z 17010KT 36/11 A3002 RMK A01 T03560113  RH  023%=      5-min Rain = 0
KFR1 210004Z 17010KT 36/11 A3002 RMK A01 T03550112  RH  023%=      5-min Rain = 0
KFR1 210005Z 16010KT 36/11 A3002 RMK A01 T03550112  RH  023%=      5-min Rain = 0
KFR1 210006Z 17010KT 36/11 A3002 RMK A01 T03550112  RH  023%=      5-min Rain = 0
KFR1 210007Z 17010KT 36/11 A3002 RMK A01 T03550113  RH  023%=      5-min Rain = 0
KFR1 210008Z 17010KT 36/11 A3002 RMK A01 T03550114  RH  023%=      5-min Rain = 0
KFR1 210009Z 16010KT 36/11 A3002 RMK A01 T03550114  RH  023%=      5-min Rain = 0
KFR1 210010Z 17010KT 36/11 A3002 RMK A01 T03550113  RH  023%=      5-min Rain = 0
KFR1 210011Z 17012KT 35/11 A3002 RMK A01 T03540113  RH  023%=      5-min Rain = 0
KFR1 210012Z 17011KT 35/11 A3002 RMK A01 T03540112  RH  023%=      5-min Rain = 0
KFR1 210013Z 17010KT 35/11 A3002 RMK A01 T03540112  RH  023%=      5-min Rain = 0
KFR1 210014Z 17009KT 35/11 A3002 RMK A01 T03540113  RH  023%=      5-min Rain = 0
KFR1 210015Z 17012KT 35/11 A3002 RMK A01 T03540112  RH  023%=      5-min Rain = 0
KFR1 210016Z 17010KT 35/11 A3002 RMK A01 T03540111  RH  023%=      5-min Rain = 0
KFR1 210017Z 17009KT 35/11 A3002 RMK A01 T03540113  RH  023%=      5-min Rain = 0
KFR1 210018Z 17008KT 35/12 A3002 RMK A01 T03540115  RH  024%=      5-min Rain = 0
KFR1 210019Z 18008KT 35/12 A3002 RMK A01 T03530115  RH  024%=      5-min Rain = 0
KFR1 210020Z 18008KT 35/12 A3002 RMK A01 T03530116  RH  024%=      5-min Rain = 0
KFR1 210021Z 17009KT 35/12 A3002 RMK A01 T03520117  RH  024%=      5-min Rain = 0
KFR1 210022Z 17009KT 35/12 A3002 RMK A01 T03530118  RH  024%=      5-min Rain = 0
KFR1 210023Z 17009KT 35/12 A3002 RMK A01 T03520119  RH  024%=      5-min Rain = 0
KFR1 210024Z 16007KT 35/12 A3002 RMK A01 T03520121  RH  025%=      5-min Rain = 0
KFR1 210025Z 16007KT 35/12 A3002 RMK A01 T03520122  RH  025%=      5-min Rain = 0
KFR1 210026Z 17007G12KT 35/12 A3002 RMK A01 T03510122  RH  025%=      5-min Rain = 0
KFR1 210027Z 16009KT 35/12 A3002 RMK A01 T03500121  RH  025%=      5-min Rain = 0
KFR1 210028Z 17007KT 35/12 A3002 RMK A01 T03490122  RH  025%=      5-min Rain = 0
KFR1 210029Z 16006KT 35/12 A3003 RMK A01 T03480124  RH  026%=      5-min Rain = 0
KFR1 210030Z 16006KT 35/13 A3003 RMK A01 T03480125  RH  026%=      5-min Rain = 0
KFR1 210031Z 16008KT 35/12 A3002 RMK A01 T03470124  RH  026%=      5-min Rain = 0
KFR1 210032Z 16008KT 35/12 A3002 RMK A01 T03470124  RH  026%=      5-min Rain = 0
KFR1 210033Z 16006KT 35/12 A3002 RMK A01 T03470124  RH  026%=      5-min Rain = 0
KFR1 210034Z 17006KT 35/13 A3002 RMK A01 T03460126  RH  026%=      5-min Rain = 0
KFR1 210035Z 17005KT 35/13 A3002 RMK A01 T03460127  RH  027%=      5-min Rain = 0
KFR1 210036Z 17007KT 35/13 A3002 RMK A01 T03450128  RH  027%=      5-min Rain = 0
KFR1 210037Z 17007KT 35/13 A3002 RMK A01 T03450126  RH  027%=      5-min Rain = 0
KFR1 210038Z 16009KT 34/13 A3002 RMK A01 T03440125  RH  027%=      5-min Rain = 0
KFR1 210039Z 16008KT 34/13 A3002 RMK A01 T03440125  RH  027%=      5-min Rain = 0
KFR1 210040Z 16008KT 34/13 A3002 RMK A01 T03430126  RH  027%=      5-min Rain = 0
KFR1 210041Z 17007KT 34/13 A3002 RMK A01 T03420125  RH  027%=      5-min Rain = 0
KFR1 210042Z 17007KT 34/13 A3002 RMK A01 T03410126  RH  027%=      5-min Rain = 0
KFR1 210043Z 17008KT 34/13 A3002 RMK A01 T03410125  RH  027%=      5-min Rain = 0
KFR1 210044Z 17007KT 34/12 A3002 RMK A01 T03390124  RH  027%=      5-min Rain = 0
KFR1 210045Z 16007KT 34/13 A3002 RMK A01 T03390125  RH  027%=      5-min Rain = 0
KFR1 210046Z 16007KT 34/13 A3002 RMK A01 T03380125  RH  027%=      5-min Rain = 0
KFR1 210047Z 17008KT 34/12 A3002 RMK A01 T03370124  RH  027%=      5-min Rain = 0
KFR1 210048Z 17008KT 34/12 A3002 RMK A01 T03370124  RH  028%=      5-min Rain = 0
KFR1 210049Z 17008KT 34/12 A3002 RMK A01 T03360124  RH  028%=      5-min Rain = 0
KFR1 210050Z 17010KT 34/12 A3002 RMK A01 T03360123  RH  028%=      5-min Rain = 0
KFR1 210051Z 17008KT 34/12 A3002 RMK A01 T03350122  RH  027%=      5-min Rain = 0
KFR1 210052Z 16009KT 34/12 A3002 RMK A01 T03350123  RH  028%=      5-min Rain = 0
KFR1 210053Z 16009KT 34/12 A3002 RMK A01 T03350123  RH  028%=      5-min Rain = 0
KFR1 210054Z 16010KT 34/12 A3002 RMK A01 T03350123  RH  028%=      5-min Rain = 0
KFR1 210055Z 17011KT 34/12 A3002 RMK A01 T03350124  RH  028%=      5-min Rain = 0
KFR1 210056Z 16014G20KT 33/13 A3002 RMK A01 T03340128  RH  029%=      5-min Rain = 0
KFR1 210057Z 16013G18KT 33/13 A3002 RMK A01 T03340131  RH  029%=      5-min Rain = 0
KFR1 210058Z 16014KT 33/13 A3002 RMK A01 T03330133  RH  030%=      5-min Rain = 0
KFR1 210059Z 16014KT 33/13 A3002 RMK A01 T03320134  RH  030%=      5-min Rain = 0
KFR1 210100Z 15014G20KT 33/14 A3002 RMK A01 T03320135  RH  030%=      5-min Rain = 0
KFR1 210101Z 14011G16KT 33/14 A3003 RMK A01 T03310136  RH  031%=      5-min Rain = 0
KFR1 210102Z 15013G20KT 33/14 A3003 RMK A01 T03290135  RH  031%=      5-min Rain = 0
KFR1 210103Z 16014G20KT 33/14 A3003 RMK A01 T03270135  RH  031%=      5-min Rain = 0
KFR1 210104Z 16013KT 33/13 A3003 RMK A01 T03250134  RH  031%=      5-min Rain = 0
KFR1 210105Z 16014G20KT 32/13 A3003 RMK A01 T03240134  RH  032%=      5-min Rain = 0
KFR1 210106Z 16016KT 32/13 A3003 RMK A01 T03230133  RH  032%=      5-min Rain = 0
KFR1 210107Z 16014KT 32/13 A3003 RMK A01 T03220132  RH  031%=      5-min Rain = 0
KFR1 210108Z 15013G19KT 32/13 A3003 RMK A01 T03210132  RH  032%=      5-min Rain = 0
KFR1 210109Z 15015KT 32/13 A3003 RMK A01 T03200131  RH  032%=      5-min Rain = 0
KFR1 210110Z 16016G22KT 32/13 A3003 RMK A01 T03190131  RH  032%=      5-min Rain = 0
KFR1 210111Z 16015G20KT 32/13 A3003 RMK A01 T03190132  RH  032%=      5-min Rain = 0
KFR1 210112Z 16013G18KT 32/13 A3003 RMK A01 T03180132  RH  032%=      5-min Rain = 0
KFR1 210113Z 16015G20KT 32/13 A3003 RMK A01 T03170132  RH  032%=      5-min Rain = 0
KFR1 210114Z 16018KT 32/13 A3003 RMK A01 T03160132  RH  032%=      5-min Rain = 0
KFR1 210115Z 16018KT 32/13 A3003 RMK A01 T03160132  RH  032%=      5-min Rain = 0
KFR1 210116Z 16016KT 32/13 A3003 RMK A01 T03160131  RH  032%=      5-min Rain = 0
KFR1 210117Z 16013G19KT 32/13 A3003 RMK A01 T03150131  RH  033%=      5-min Rain = 0
KFR1 210118Z 16012G17KT 31/13 A3003 RMK A01 T03140131  RH  033%=      5-min Rain = 0
KFR1 210119Z 16015KT 31/13 A3003 RMK A01 T03130132  RH  033%=      5-min Rain = 0
KFR1 210120Z 16014KT 31/13 A3003 RMK A01 T03130131  RH  033%=      5-min Rain = 0
KFR1 210121Z 16013KT 31/13 A3003 RMK A01 T03120132  RH  033%=      5-min Rain = 0
KFR1 210122Z 16011G16KT 31/13 A3003 RMK A01 T03110133  RH  034%=      5-min Rain = 0
KFR1 210123Z 16011KT 31/13 A3003 RMK A01 T03100133  RH  034%=      5-min Rain = 0
KFR1 210124Z 16012KT 31/13 A3003 RMK A01 T03090133  RH  034%=      5-min Rain = 0
KFR1 210125Z 16010G15KT 31/13 A3003 RMK A01 T03080134  RH  034%=      5-min Rain = 0
KFR1 210126Z 16012KT 31/13 A3003 RMK A01 T03070134  RH  035%=      5-min Rain = 0
KFR1 210127Z 16010KT 31/13 A3003 RMK A01 T03070134  RH  035%=      5-min Rain = 0
KFR1 210128Z 15012KT 31/13 A3003 RMK A01 T03060134  RH  035%=      5-min Rain = 0
KFR1 210129Z 16010KT 31/13 A3003 RMK A01 T03050134  RH  035%=      5-min Rain = 0
KFR1 210130Z 16009KT 31/14 A3003 RMK A01 T03050135  RH  035%=      5-min Rain = 0
KFR1 210131Z 16010KT 30/14 A3003 RMK A01 T03040135  RH  036%=      5-min Rain = 0
KFR1 210132Z 15010KT 30/14 A3003 RMK A01 T03030135  RH  036%=      5-min Rain = 0
KFR1 210133Z 15010G16KT 30/14 A3003 RMK A01 T03020135  RH  036%=      5-min Rain = 0
KFR1 210134Z 16012KT 30/14 A3003 RMK A01 T03020135  RH  036%=      5-min Rain = 0
KFR1 210135Z 16011G16KT 30/14 A3003 RMK A01 T03010135  RH  036%=      5-min Rain = 0
KFR1 210136Z 16013KT 30/14 A3003 RMK A01 T03010135  RH  036%=      5-min Rain = 0
KFR1 210137Z 16010KT 30/14 A3003 RMK A01 T03010135  RH  036%=      5-min Rain = 0
KFR1 210138Z 16014KT 30/14 A3003 RMK A01 T03010135  RH  036%=      5-min Rain = 0
KFR1 210139Z 16011KT 30/14 A3003 RMK A01 T03000135  RH  036%=      5-min Rain = 0
KFR1 210140Z 16011KT 30/14 A3003 RMK A01 T02990135  RH  036%=      5-min Rain = 0
KFR1 210141Z 16011KT 30/14 A3003 RMK A01 T02990135  RH  037%=      5-min Rain = 0
KFR1 210142Z 15013KT 30/14 A3003 RMK A01 T02990135  RH  037%=      5-min Rain = 0
KFR1 210143Z 16011KT 30/14 A3003 RMK A01 T02980135  RH  037%=      5-min Rain = 0
KFR1 210144Z 16011KT 30/14 A3003 RMK A01 T02980135  RH  037%=      5-min Rain = 0
KFR1 210145Z 16012KT 30/14 A3003 RMK A01 T02970135  RH  037%=      5-min Rain = 0
KFR1 210146Z 15012KT 30/14 A3003 RMK A01 T02970135  RH  037%=      5-min Rain = 0
KFR1 210147Z 16011KT 30/14 A3003 RMK A01 T02970135  RH  037%=      5-min Rain = 0
KFR1 210148Z 16012G17KT 30/14 A3003 RMK A01 T02960135  RH  037%=      5-min Rain = 0
KFR1 210149Z 16011KT 30/13 A3003 RMK A01 T02960134  RH  037%=      5-min Rain = 0
KFR1 210150Z 16012KT 30/14 A3003 RMK A01 T02960135  RH  037%=      5-min Rain = 0
KFR1 210151Z 16011KT 30/14 A3003 RMK A01 T02960135  RH  037%=      5-min Rain = 0
KFR1 210152Z 16011KT 30/14 A3003 RMK A01 T02960136  RH  038%=      5-min Rain = 0
KFR1 210153Z 16010KT 30/14 A3003 RMK A01 T02950136  RH  038%=      5-min Rain = 0
KFR1 210154Z 16012KT 29/14 A3003 RMK A01 T02940135  RH  038%=      5-min Rain = 0
KFR1 210155Z 16013KT 29/14 A3003 RMK A01 T02940136  RH  038%=      5-min Rain = 0
KFR1 210156Z 16012KT 29/14 A3003 RMK A01 T02940136  RH  038%=      5-min Rain = 0
KFR1 210157Z 16011KT 29/14 A3003 RMK A01 T02930136  RH  038%=      5-min Rain = 0
KFR1 210158Z 16012KT 29/14 A3003 RMK A01 T02930136  RH  038%=      5-min Rain = 0
KFR1 210159Z 16014KT 29/14 A3003 RMK A01 T02930135  RH  038%=      5-min Rain = 0
KFR1 210200Z 16014KT 29/14 A3003 RMK A01 T02930135  RH  038%=      5-min Rain = 0
KFR1 210201Z 16014KT 29/14 A3003 RMK A01 T02930135  RH  038%=      5-min Rain = 0
KFR1 210202Z 16014G19KT 29/14 A3003 RMK A01 T02930135  RH  038%=      5-min Rain = 0
KFR1 210203Z 17014KT 29/14 A3003 RMK A01 T02930135  RH  038%=      5-min Rain = 0
KFR1 210204Z 16014KT 29/14 A3003 RMK A01 T02930136  RH  038%=      5-min Rain = 0
KFR1 210205Z 17013KT 29/14 A3003 RMK A01 T02930135  RH  038%=      5-min Rain = 0
KFR1 210206Z 17014G19KT 29/14 A3003 RMK A01 T02930135  RH  038%=      5-min Rain = 0
KFR1 210207Z 17012G18KT 29/14 A3003 RMK A01 T02920135  RH  038%=      5-min Rain = 0
KFR1 210208Z 17012KT 29/14 A3003 RMK A01 T02920136  RH  038%=      5-min Rain = 0
KFR1 210209Z 17015KT 29/14 A3003 RMK A01 T02910135  RH  038%=      5-min Rain = 0
KFR1 210210Z 17012G17KT 29/14 A3003 RMK A01 T02910135  RH  038%=      5-min Rain = 0
KFR1 210211Z 18012G17KT 29/14 A3003 RMK A01 T02910135  RH  038%=      5-min Rain = 0
KFR1 210212Z 17013G18KT 29/14 A3003 RMK A01 T02910135  RH  038%=      5-min Rain = 0
KFR1 210213Z 17013KT 29/14 A3003 RMK A01 T02910135  RH  038%=      5-min Rain = 0
KFR1 210214Z 17015KT 29/13 A3003 RMK A01 T02910134  RH  038%=      5-min Rain = 0
KFR1 210215Z 17014KT 29/13 A3003 RMK A01 T02910133  RH  038%=      5-min Rain = 0
KFR1 210216Z 17015KT 29/13 A3003 RMK A01 T02920133  RH  038%=      5-min Rain = 0
KFR1 210217Z 17014KT 29/13 A3003 RMK A01 T02920133  RH  038%=      5-min Rain = 0
KFR1 210218Z 17014KT 29/13 A3003 RMK A01 T02930133  RH  037%=      5-min Rain = 0
KFR1 210219Z 17012KT 29/13 A3003 RMK A01 T02920132  RH  037%=      5-min Rain = 0
KFR1 210220Z 17014G20KT 29/13 A3003 RMK A01 T02920132  RH  038%=      5-min Rain = 0
KFR1 210221Z 18015KT 29/13 A3003 RMK A01 T02920133  RH  038%=      5-min Rain = 0
KFR1 210222Z 18014KT 29/13 A3003 RMK A01 T02920132  RH  038%=      5-min Rain = 0
KFR1 210223Z 18015KT 29/13 A3003 RMK A01 T02920133  RH  038%=      5-min Rain = 0
KFR1 210224Z 17014KT 29/13 A3003 RMK A01 T02920132  RH  037%=      5-min Rain = 0
KFR1 210225Z 17015KT 29/13 A3003 RMK A01 T02920133  RH  038%=      5-min Rain = 0
KFR1 210226Z 18015KT 29/13 A3003 RMK A01 T02920132  RH  037%=      5-min Rain = 0
KFR1 210227Z 18014KT 29/13 A3003 RMK A01 T02920132  RH  037%=      5-min Rain = 0
KFR1 210228Z 18014KT 29/13 A3003 RMK A01 T02920132  RH  037%=      5-min Rain = 0
KFR1 210229Z 18012KT 29/13 A3003 RMK A01 T02920132  RH  037%=      5-min Rain = 0
KFR1 210230Z 18014G19KT 29/13 A3003 RMK A01 T02920132  RH  038%=      5-min Rain = 0
KFR1 210231Z 18013KT 29/13 A3003 RMK A01 T02920132  RH  037%=      5-min Rain = 0
KFR1 210232Z 18013G18KT 29/13 A3003 RMK A01 T02920131  RH  037%=      5-min Rain = 0
KFR1 210233Z 17013KT 29/13 A3003 RMK A01 T02920132  RH  037%=      5-min Rain = 0
KFR1 210234Z 18014KT 29/13 A3003 RMK A01 T02930131  RH  037%=      5-min Rain = 0
KFR1 210235Z 18015G20KT 29/13 A3003 RMK A01 T02930131  RH  037%=      5-min Rain = 0
KFR1 210236Z 18012KT 29/13 A3003 RMK A01 T02940131  RH  037%=      5-min Rain = 0
KFR1 210237Z 18014KT 29/13 A3003 RMK A01 T02940131  RH  037%=      5-min Rain = 0
KFR1 210238Z 18015KT 29/13 A3003 RMK A01 T02940131  RH  037%=      5-min Rain = 0
KFR1 210239Z 17012KT 30/13 A3003 RMK A01 T02950131  RH  037%=      5-min Rain = 0
KFR1 210240Z 18015KT 30/13 A3003 RMK A01 T02950130  RH  036%=      5-min Rain = 0
KFR1 210241Z 17014KT 30/13 A3003 RMK A01 T02950130  RH  036%=      5-min Rain = 0
KFR1 210242Z 18014KT 30/13 A3003 RMK A01 T02950130  RH  036%=      5-min Rain = 0
KFR1 210243Z 17015KT 30/13 A3003 RMK A01 T02950130  RH  036%=      5-min Rain = 0
KFR1 210244Z 18015KT 30/13 A3003 RMK A01 T02950130  RH  036%=      5-min Rain = 0
KFR1 210245Z 17014G20KT 30/13 A3003 RMK A01 T02950129  RH  036%=      5-min Rain = 0
KFR1 210246Z 17013KT 30/13 A3003 RMK A01 T02950129  RH  036%=      5-min Rain = 0
KFR1 210247Z 18014KT 30/13 A3003 RMK A01 T02950129  RH  036%=      5-min Rain = 0
KFR1 210248Z 18015KT 30/13 A3003 RMK A01 T02950128  RH  036%=      5-min Rain = 0
KFR1 210249Z 17016KT 30/13 A3003 RMK A01 T02950128  RH  036%=      5-min Rain = 0
KFR1 210250Z 17014KT 30/13 A3003 RMK A01 T02960128  RH  036%=      5-min Rain = 0
KFR1 210251Z 17015KT 30/13 A3003 RMK A01 T02960128  RH  036%=      5-min Rain = 0
KFR1 210252Z 17013G20KT 30/13 A3003 RMK A01 T02960128  RH  036%=      5-min Rain = 0
KFR1 210253Z 18014KT 30/13 A3003 RMK A01 T02960128  RH  036%=      5-min Rain = 0
KFR1 210254Z 18015KT 30/13 A3003 RMK A01 T02960128  RH  036%=      5-min Rain = 0
KFR1 210255Z 17014KT 30/13 A3003 RMK A01 T02950127  RH  036%=      5-min Rain = 0
KFR1 210256Z 17015KT 30/13 A3003 RMK A01 T02960127  RH  036%=      5-min Rain = 0
KFR1 210257Z 17016KT 30/13 A3003 RMK A01 T02960126  RH  035%=      5-min Rain = 0
KFR1 210258Z 18013KT 30/13 A3003 RMK A01 T02970127  RH  035%=      5-min Rain = 0
KFR1 210259Z 17013G19KT 30/13 A3003 RMK A01 T02960127  RH  035%=      5-min Rain = 0
KFR1 210300Z 17015G20KT 30/13 A3003 RMK A01 T02960127  RH  035%=      5-min Rain = 0
KFR1 210301Z 18015KT 30/13 A3003 RMK A01 T02960127  RH  035%=      5-min Rain = 0
KFR1 210302Z 18014KT 30/13 A3003 RMK A01 T02960126  RH  035%=      5-min Rain = 0
KFR1 210303Z 17013KT 30/13 A3004 RMK A01 T02960127  RH  035%=      5-min Rain = 0
KFR1 210304Z 18012KT 30/13 A3004 RMK A01 T02960127  RH  036%=      5-min Rain = 0
KFR1 210305Z 18013KT 30/13 A3004 RMK A01 T02950127  RH  036%=      5-min Rain = 0
KFR1 210306Z 17013KT 30/13 A3004 RMK A01 T02950127  RH  035%=      5-min Rain = 0
KFR1 210307Z 18013KT 30/13 A3004 RMK A01 T02950127  RH  035%=      5-min Rain = 0
KFR1 210308Z 18014KT 30/13 A3004 RMK A01 T02950127  RH  035%=      5-min Rain = 0
KFR1 210309Z 17012KT 30/13 A3004 RMK A01 T02950127  RH  036%=      5-min Rain = 0
KFR1 210310Z 17013KT 29/13 A3004 RMK A01 T02940126  RH  036%=      5-min Rain = 0
KFR1 210311Z 18013KT 29/13 A3004 RMK A01 T02940126  RH  036%=      5-min Rain = 0
KFR1 210312Z 18012KT 29/13 A3004 RMK A01 T02940126  RH  035%=      5-min Rain = 0
KFR1 210313Z 17011KT 29/13 A3004 RMK A01 T02940126  RH  035%=      5-min Rain = 0
KFR1 210314Z 18012KT 29/13 A3004 RMK A01 T02940126  RH  036%=      5-min Rain = 0
KFR1 210315Z 17012KT 29/13 A3004 RMK A01 T02930126  RH  036%=      5-min Rain = 0
KFR1 210316Z 18014KT 29/13 A3004 RMK A01 T02930125  RH  036%=      5-min Rain = 0
KFR1 210317Z 17013KT 29/13 A3004 RMK A01 T02930125  RH  036%=      5-min Rain = 0
KFR1 210318Z 17014KT 29/13 A3004 RMK A01 T02930125  RH  035%=      5-min Rain = 0
KFR1 210319Z 18012KT 29/13 A3004 RMK A01 T02940125  RH  035%=      5-min Rain = 0
KFR1 210320Z 17013KT 29/13 A3004 RMK A01 T02930125  RH  035%=      5-min Rain = 0
KFR1 210321Z 18012KT 29/12 A3004 RMK A01 T02930124  RH  035%=      5-min Rain = 0
KFR1 210322Z 17013KT 29/12 A3004 RMK A01 T02930124  RH  035%=      5-min Rain = 0
KFR1 210323Z 18014KT 29/12 A3004 RMK A01 T02930122  RH  035%=      5-min Rain = 0
KFR1 210324Z 18013KT 29/12 A3004 RMK A01 T02940123  RH  035%=      5-min Rain = 0
KFR1 210325Z 18013KT 29/12 A3004 RMK A01 T02940122  RH  035%=      5-min Rain = 0
KFR1 210326Z 18012KT 29/12 A3004 RMK A01 T02940122  RH  035%=      5-min Rain = 0
KFR1 210327Z 18011KT 29/12 A3004 RMK A01 T02940123  RH  035%=      5-min Rain = 0
KFR1 210328Z 18013KT 29/12 A3004 RMK A01 T02940123  RH  035%=      5-min Rain = 0
KFR1 210329Z 18013KT 29/12 A3004 RMK A01 T02940123  RH  035%=      5-min Rain = 0
KFR1 210330Z 18012KT 30/12 A3004 RMK A01 T02950122  RH  034%=      5-min Rain = 0
KFR1 210331Z 17011KT 30/12 A3004 RMK A01 T02950122  RH  034%=      5-min Rain = 0
KFR1 210332Z 17013KT 30/12 A3004 RMK A01 T02950122  RH  034%=      5-min Rain = 0
KFR1 210333Z 18012G17KT 30/12 A3004 RMK A01 T02950122  RH  034%=      5-min Rain = 0
KFR1 210334Z 18012KT 30/12 A3004 RMK A01 T02960122  RH  034%=      5-min Rain = 0
KFR1 210335Z 18011G16KT 30/12 A3004 RMK A01 T02960123  RH  034%=      5-min Rain = 0
KFR1 210336Z 17013KT 30/12 A3004 RMK A01 T02950123  RH  035%=      5-min Rain = 0
KFR1 210337Z 18013KT 30/12 A3004 RMK A01 T02950123  RH  035%=      5-min Rain = 0
KFR1 210338Z 17013KT 30/12 A3004 RMK A01 T02960124  RH  035%=      5-min Rain = 0
KFR1 210339Z 17012KT 30/13 A3004 RMK A01 T02960125  RH  035%=      5-min Rain = 0
KFR1 210340Z 18013KT 30/13 A3004 RMK A01 T02960125  RH  035%=      5-min Rain = 0
KFR1 210341Z 18012KT 30/13 A3004 RMK A01 T02960126  RH  035%=      5-min Rain = 0
KFR1 210342Z 17014KT 30/13 A3004 RMK A01 T02970128  RH  035%=      5-min Rain = 0
KFR1 210343Z 17013KT 30/13 A3004 RMK A01 T02960128  RH  035%=      5-min Rain = 0
KFR1 210344Z 17013KT 30/13 A3004 RMK A01 T02970128  RH  036%=      5-min Rain = 0
KFR1 210345Z 17013KT 30/13 A3004 RMK A01 T02970129  RH  036%=      5-min Rain = 0
KFR1 210346Z 18013KT 30/13 A3004 RMK A01 T02970129  RH  036%=      5-min Rain = 0
KFR1 210347Z 17012KT 30/13 A3004 RMK A01 T02970130  RH  036%=      5-min Rain = 0
KFR1 210348Z 17013KT 30/13 A3004 RMK A01 T02970131  RH  036%=      5-min Rain = 0
KFR1 210349Z 17012KT 30/13 A3004 RMK A01 T02970131  RH  036%=      5-min Rain = 0
KFR1 210350Z 18012G17KT 30/13 A3004 RMK A01 T02970131  RH  036%=      5-min Rain = 0
KFR1 210351Z 18013KT 30/13 A3004 RMK A01 T02960131  RH  036%=      5-min Rain = 0
KFR1 210352Z 18012KT 30/13 A3004 RMK A01 T02960132  RH  036%=      5-min Rain = 0
KFR1 210353Z 18012KT 30/13 A3005 RMK A01 T02970132  RH  036%=      5-min Rain = 0
KFR1 210354Z 18011KT 30/13 A3005 RMK A01 T02970133  RH  037%=      5-min Rain = 0
KFR1 210355Z 18011KT 30/13 A3005 RMK A01 T02960133  RH  037%=      5-min Rain = 0
KFR1 210356Z 19011KT 30/13 A3005 RMK A01 T02960133  RH  037%=      5-min Rain = 0
KFR1 210357Z 20011KT 30/13 A3006 RMK A01 T02960133  RH  037%=      5-min Rain = 0
KFR1 210358Z 23012KT 30/13 A3006 RMK A01 T02960134  RH  037%=      5-min Rain = 0
KFR1 210359Z 25013G18KT 30/13 A3007 RMK A01 T02960134  RH  037%=      5-min Rain = 0
KFR1 210400Z 24014KT 29/13 A3007 RMK A01 T02940132  RH  037%=      5-min Rain = 0
KFR1 210401Z 24014KT 29/13 A3007 RMK A01 T02930130  RH  037%=      5-min Rain = 0
KFR1 210402Z 24013KT 29/13 A3007 RMK A01 T02920131  RH  037%=      5-min Rain = 0
KFR1 210403Z 24014KT 29/13 A3007 RMK A01 T02920133  RH  038%=      5-min Rain = 0
KFR1 210404Z 23012KT 29/13 A3007 RMK A01 T02930134  RH  038%=      5-min Rain = 0
KFR1 210405Z 22011KT 29/13 A3007 RMK A01 T02930134  RH  038%=      5-min Rain = 0
KFR1 210406Z 22009KT 29/13 A3007 RMK A01 T02930133  RH  037%=      5-min Rain = 0
KFR1 210407Z 23011KT 29/13 A3007 RMK A01 T02920132  RH  037%=      5-min Rain = 0
KFR1 210408Z 22017G23KT 29/13 A3006 RMK A01 T02930133  RH  037%=      5-min Rain = 0
KFR1 210409Z 21015KT 30/14 A3006 RMK A01 T03000135  RH  037%=      5-min Rain = 0
KFR1 210410Z 20013G20KT 31/14 A3006 RMK A01 T03050136  RH  035%=      5-min Rain = 0
KFR1 210411Z 21011G16KT 31/14 A3006 RMK A01 T03080136  RH  035%=      5-min Rain = 0
KFR1 210412Z 20015KT 31/14 A3006 RMK A01 T03090136  RH  035%=      5-min Rain = 0
KFR1 210413Z 19013KT 31/14 A3006 RMK A01 T03090136  RH  035%=      5-min Rain = 0
KFR1 210414Z 19011KT 31/14 A3006 RMK A01 T03070136  RH  035%=      5-min Rain = 0
KFR1 210415Z 19010KT 31/14 A3007 RMK A01 T03070136  RH  035%=      5-min Rain = 0
KFR1 210416Z 20007KT 31/14 A3007 RMK A01 T03060136  RH  036%=      5-min Rain = 0
KFR1 210417Z 20008KT 31/14 A3007 RMK A01 T03050136  RH  036%=      5-min Rain = 0
KFR1 210418Z 22007KT 30/14 A3007 RMK A01 T03040137  RH  036%=      5-min Rain = 0
KFR1 210419Z 22008KT 30/14 A3007 RMK A01 T03040137  RH  036%=      5-min Rain = 0
KFR1 210420Z 23010KT 30/14 A3007 RMK A01 T03030137  RH  036%=      5-min Rain = 0
KFR1 210421Z 23011KT 30/14 A3007 RMK A01 T03020137  RH  036%=      5-min Rain = 0
KFR1 210422Z 23013KT 30/14 A3007 RMK A01 T03020136  RH  036%=      5-min Rain = 0
KFR1 210423Z 23012KT 30/14 A3007 RMK A01 T03030136  RH  036%=      5-min Rain = 0
KFR1 210424Z 24014KT 30/14 A3007 RMK A01 T03030136  RH  036%=      5-min Rain = 0
KFR1 210425Z 23013KT 30/14 A3007 RMK A01 T03030135  RH  036%=      5-min Rain = 0
KFR1 210426Z 23010KT 30/14 A3007 RMK A01 T03030136  RH  036%=      5-min Rain = 0
KFR1 210427Z 23012KT 30/14 A3007 RMK A01 T03030136  RH  036%=      5-min Rain = 0
KFR1 210428Z 23009KT 30/14 A3007 RMK A01 T03030136  RH  036%=      5-min Rain = 0
KFR1 210429Z 23009KT 30/14 A3007 RMK A01 T03030137  RH  036%=      5-min Rain = 0
KFR1 210430Z 23009KT 30/14 A3007 RMK A01 T03010136  RH  036%=      5-min Rain = 0
KFR1 210431Z 23010KT 30/14 A3007 RMK A01 T03010136  RH  037%=      5-min Rain = 0
KFR1 210432Z 22009KT 30/14 A3007 RMK A01 T03000136  RH  037%=      5-min Rain = 0
KFR1 210433Z 22008KT 30/14 A3007 RMK A01 T03000136  RH  037%=      5-min Rain = 0
KFR1 210434Z 21009KT 30/14 A3007 RMK A01 T03000137  RH  037%=      5-min Rain = 0
KFR1 210435Z 21008KT 30/14 A3007 RMK A01 T02990136  RH  037%=      5-min Rain = 0
KFR1 210436Z 20008KT 30/14 A3007 RMK A01 T02990137  RH  037%=      5-min Rain = 0
KFR1 210437Z 20008KT 30/14 A3007 RMK A01 T02970137  RH  037%=      5-min Rain = 0
KFR1 210438Z 20009KT 30/14 A3007 RMK A01 T02960137  RH  038%=      5-min Rain = 0
KFR1 210439Z 20008KT 30/14 A3007 RMK A01 T02960137  RH  038%=      5-min Rain = 0
KFR1 210440Z 20008KT 30/14 A3007 RMK A01 T02950136  RH  038%=      5-min Rain = 0
KFR1 210441Z 20009KT 30/14 A3007 RMK A01 T02960137  RH  038%=      5-min Rain = 0
KFR1 210442Z 20009KT 30/14 A3007 RMK A01 T02960137  RH  038%=      5-min Rain = 0
KFR1 210443Z 20008KT 30/14 A3007 RMK A01 T02960136  RH  038%=      5-min Rain = 0
KFR1 210444Z 20008KT 30/14 A3007 RMK A01 T02970137  RH  038%=      5-min Rain = 0
KFR1 210445Z 20008KT 30/14 A3007 RMK A01 T02970137  RH  038%=      5-min Rain = 0
KFR1 210446Z 20009KT 30/14 A3007 RMK A01 T02970137  RH  038%=      5-min Rain = 0
KFR1 210447Z 20008KT 30/14 A3007 RMK A01 T02970137  RH  038%=      5-min Rain = 0
KFR1 210448Z 20007KT 30/14 A3007 RMK A01 T02970137  RH  038%=      5-min Rain = 0
KFR1 210449Z 20008KT 30/14 A3007 RMK A01 T02960137  RH  038%=      5-min Rain = 0
KFR1 210450Z 21008KT 30/14 A3007 RMK A01 T02960138  RH  038%=      5-min Rain = 0
KFR1 210451Z 20007KT 30/14 A3008 RMK A01 T02950138  RH  038%=      5-min Rain = 0
KFR1 210452Z 20008KT 30/14 A3008 RMK A01 T02950138  RH  038%=      5-min Rain = 0
KFR1 210453Z 21007KT 29/14 A3008 RMK A01 T02940138  RH  038%=      5-min Rain = 0
KFR1 210454Z 21008KT 29/14 A3008 RMK A01 T02940138  RH  039%=      5-min Rain = 0
KFR1 210455Z 21008KT 29/14 A3008 RMK A01 T02930138  RH  039%=      5-min Rain = 0
KFR1 210456Z 21009KT 29/14 A3008 RMK A01 T02930138  RH  039%=      5-min Rain = 0
KFR1 210457Z 21008KT 29/14 A3007 RMK A01 T02930138  RH  039%=      5-min Rain = 0
KFR1 210458Z 21009KT 29/14 A3008 RMK A01 T02940138  RH  039%=      5-min Rain = 0
KFR1 210459Z 21008KT 29/14 A3008 RMK A01 T02940138  RH  039%=      5-min Rain = 0

Page generated in 0.1222 seconds.